DAL33 EGLL-KATL
Flight info
| Callsign | DAL33 |
|---|---|
| Flight time | 8h 21m |
| Altitude | 32000 |
| Route | ULTIB T420 TNT UL28 PENIL M144 BAGSO DCT RINUS DCT MALOT/M082F330 NATE RIKAL/N0474F340 N572A TOPPS/N0465F360 DCT ENE DCT BAF Q448 PTW J48 MOL DCT FLASK OZZZI2 |
| Aircraft | B764/H-SDE3FGHIM3RWXY/LB1 |
Departure
| Time | 2026-05-05 12:29 |
|---|---|
| Airport | London Heathrow Airport (EGLL) |
Arrival
| Time | 2026-05-05 20:50 |
|---|---|
| Airport | Hartsfield Jackson Atlanta International Airport (KATL) |
| Time | Latitude | Longitude | Altitude | Speed | Heading |
|---|---|---|---|---|---|
| 2026-05-05 11:52 | 51.46849 | -0.46349 | 95 ft | 0 kts | 57° |
| 2026-05-05 12:09 | 51.46849 | -0.46350 | 94 ft | 0 kts | 57° |
| 2026-05-05 12:13 | 51.46848 | -0.46352 | 94 ft | 1 kts | 57° |
| 2026-05-05 12:13 | 51.46841 | -0.46372 | 94 ft | 2 kts | 69° |
| 2026-05-05 12:13 | 51.46837 | -0.46395 | 94 ft | 2 kts | 79° |
| 2026-05-05 12:13 | 51.46835 | -0.46419 | 94 ft | 2 kts | 90° |
| 2026-05-05 12:14 | 51.46836 | -0.46442 | 94 ft | 2 kts | 100° |
| 2026-05-05 12:14 | 51.46840 | -0.46465 | 95 ft | 2 kts | 110° |
| 2026-05-05 12:14 | 51.46846 | -0.46487 | 94 ft | 2 kts | 120° |
| 2026-05-05 12:14 | 51.46854 | -0.46507 | 94 ft | 2 kts | 130° |
| 2026-05-05 12:15 | 51.46864 | -0.46524 | 94 ft | 2 kts | 141° |
| 2026-05-05 12:15 | 51.46876 | -0.46538 | 94 ft | 2 kts | 147° |
| 2026-05-05 12:15 | 51.46889 | -0.46551 | 94 ft | 2 kts | 146° |
| 2026-05-05 12:15 | 51.46892 | -0.46554 | 95 ft | 0 kts | 146° |
| 2026-05-05 12:18 | 51.46885 | -0.46546 | 94 ft | 2 kts | 146° |
| 2026-05-05 12:18 | 51.46862 | -0.46521 | 94 ft | 5 kts | 146° |
| 2026-05-05 12:19 | 51.46828 | -0.46483 | 94 ft | 6 kts | 146° |
| 2026-05-05 12:19 | 51.46787 | -0.46451 | 94 ft | 5 kts | 179° |
| 2026-05-05 12:19 | 51.46757 | -0.46482 | 94 ft | 4 kts | 242° |
| 2026-05-05 12:19 | 51.46749 | -0.46543 | 94 ft | 6 kts | 266° |
| 2026-05-05 12:20 | 51.46747 | -0.46637 | 94 ft | 10 kts | 269° |
| 2026-05-05 12:20 | 51.46748 | -0.46777 | 94 ft | 14 kts | 271° |
| 2026-05-05 12:20 | 51.46748 | -0.46967 | 94 ft | 19 kts | 270° |
| 2026-05-05 12:20 | 51.46747 | -0.47184 | 94 ft | 18 kts | 270° |
| 2026-05-05 12:21 | 51.46747 | -0.47377 | 94 ft | 16 kts | 270° |
| 2026-05-05 12:21 | 51.46745 | -0.47540 | 94 ft | 13 kts | 269° |
| 2026-05-05 12:21 | 51.46744 | -0.47671 | 94 ft | 10 kts | 270° |
| 2026-05-05 12:21 | 51.46743 | -0.47773 | 94 ft | 7 kts | 270° |
| 2026-05-05 12:22 | 51.46743 | -0.47865 | 94 ft | 9 kts | 270° |
| 2026-05-05 12:22 | 51.46743 | -0.47979 | 94 ft | 11 kts | 270° |
| 2026-05-05 12:22 | 51.46742 | -0.48114 | 94 ft | 13 kts | 270° |
| 2026-05-05 12:22 | 51.46742 | -0.48273 | 94 ft | 15 kts | 270° |
| 2026-05-05 12:23 | 51.46741 | -0.48452 | 94 ft | 17 kts | 270° |
| 2026-05-05 12:23 | 51.46741 | -0.48624 | 94 ft | 8 kts | 270° |
| 2026-05-05 12:23 | 51.46736 | -0.48704 | 94 ft | 5 kts | 244° |
| 2026-05-05 12:23 | 51.46718 | -0.48730 | 94 ft | 2 kts | 207° |
| 2026-05-05 12:24 | 51.46698 | -0.48738 | 94 ft | 3 kts | 189° |
| 2026-05-05 12:24 | 51.46669 | -0.48745 | 94 ft | 5 kts | 189° |
| 2026-05-05 12:24 | 51.46631 | -0.48755 | 94 ft | 5 kts | 193° |
| 2026-05-05 12:24 | 51.46630 | -0.48756 | 94 ft | 0 kts | 195° |
| 2026-05-05 12:26 | 51.46627 | -0.48757 | 94 ft | 1 kts | 195° |
| 2026-05-05 12:26 | 51.46603 | -0.48767 | 94 ft | 5 kts | 196° |
| 2026-05-05 12:27 | 51.46556 | -0.48787 | 94 ft | 8 kts | 188° |
| 2026-05-05 12:27 | 51.46500 | -0.48757 | 94 ft | 9 kts | 136° |
| 2026-05-05 12:27 | 51.46477 | -0.48656 | 94 ft | 10 kts | 90° |
| 2026-05-05 12:27 | 51.46478 | -0.48453 | 94 ft | 36 kts | 89° |
| 2026-05-05 12:28 | 51.46481 | -0.47782 | 94 ft | 83 kts | 90° |
| 2026-05-05 12:28 | 51.46483 | -0.46601 | 95 ft | 126 kts | 89° |
| 2026-05-05 12:28 | 51.46491 | -0.44987 | 95 ft | 165 kts | 90° |
| 2026-05-05 12:28 | 51.46496 | -0.42964 | 260 ft | 186 kts | 87° |
| 2026-05-05 12:29 | 51.46729 | -0.40924 | 690 ft | 190 kts | 62° |
| 2026-05-05 12:29 | 51.47479 | -0.39214 | 1239 ft | 193 kts | 46° |
| 2026-05-05 12:29 | 51.48388 | -0.37667 | 1849 ft | 186 kts | 47° |
| 2026-05-05 12:29 | 51.49268 | -0.36108 | 1942 ft | 196 kts | 47° |
| 2026-05-05 12:30 | 51.50162 | -0.34481 | 2401 ft | 192 kts | 48° |
| 2026-05-05 12:30 | 51.51044 | -0.32837 | 2734 ft | 196 kts | 48° |
| 2026-05-05 12:30 | 51.51836 | -0.31078 | 3087 ft | 198 kts | 64° |
| 2026-05-05 12:30 | 51.52362 | -0.28977 | 3289 ft | 210 kts | 67° |
| 2026-05-05 12:31 | 51.52918 | -0.26654 | 3239 ft | 237 kts | 68° |
| 2026-05-05 12:31 | 51.53510 | -0.24047 | 3383 ft | 257 kts | 69° |
| 2026-05-05 12:31 | 51.54121 | -0.21360 | 3994 ft | 257 kts | 64° |
| 2026-05-05 12:31 | 51.55190 | -0.19092 | 4418 ft | 262 kts | 36° |
| 2026-05-05 12:32 | 51.56850 | -0.17927 | 4782 ft | 265 kts | 7° |
| 2026-05-05 12:32 | 51.58669 | -0.18208 | 5085 ft | 267 kts | 339° |
| 2026-05-05 12:32 | 51.60202 | -0.19891 | 5373 ft | 273 kts | 313° |
| 2026-05-05 12:32 | 51.61491 | -0.22157 | 5580 ft | 275 kts | 321° |
| 2026-05-05 12:33 | 51.62981 | -0.24067 | 5768 ft | 274 kts | 323° |
| 2026-05-05 12:33 | 51.64491 | -0.25916 | 5939 ft | 273 kts | 326° |
| 2026-05-05 12:33 | 51.66068 | -0.27652 | 5995 ft | 275 kts | 328° |
| 2026-05-05 12:33 | 51.67671 | -0.29320 | 5990 ft | 275 kts | 329° |
| 2026-05-05 12:34 | 51.69279 | -0.30940 | 5996 ft | 272 kts | 330° |
| 2026-05-05 12:34 | 51.70885 | -0.32530 | 6008 ft | 273 kts | 330° |
| 2026-05-05 12:34 | 51.72531 | -0.34140 | 6335 ft | 277 kts | 330° |
| 2026-05-05 12:34 | 51.74151 | -0.35717 | 7035 ft | 274 kts | 330° |
| 2026-05-05 12:35 | 51.75795 | -0.37313 | 7579 ft | 278 kts | 330° |
| 2026-05-05 12:35 | 51.77448 | -0.38916 | 8165 ft | 279 kts | 330° |
| 2026-05-05 12:35 | 51.79127 | -0.40543 | 8732 ft | 281 kts | 330° |
| 2026-05-05 12:35 | 51.80780 | -0.42146 | 9304 ft | 283 kts | 330° |
| 2026-05-05 12:36 | 51.82480 | -0.43794 | 9840 ft | 286 kts | 330° |
| 2026-05-05 12:36 | 51.84192 | -0.45455 | 10298 ft | 292 kts | 330° |
| 2026-05-05 12:36 | 51.86008 | -0.47218 | 10313 ft | 316 kts | 330° |
| 2026-05-05 12:36 | 51.87970 | -0.49124 | 10370 ft | 340 kts | 330° |
| 2026-05-05 12:37 | 51.90048 | -0.51145 | 10428 ft | 364 kts | 329° |
| 2026-05-05 12:37 | 51.92260 | -0.53300 | 11059 ft | 372 kts | 329° |
| 2026-05-05 12:37 | 51.94459 | -0.55446 | 11821 ft | 376 kts | 329° |
| 2026-05-05 12:37 | 51.96696 | -0.57630 | 12546 ft | 380 kts | 329° |
| 2026-05-05 12:38 | 51.98984 | -0.59867 | 13298 ft | 384 kts | 329° |
| 2026-05-05 12:38 | 52.01256 | -0.62091 | 14050 ft | 387 kts | 329° |
| 2026-05-05 12:38 | 52.03592 | -0.64379 | 14714 ft | 393 kts | 329° |
| 2026-05-05 12:38 | 52.05939 | -0.66682 | 15388 ft | 398 kts | 328° |
| 2026-05-05 12:39 | 52.08325 | -0.69024 | 16088 ft | 402 kts | 328° |
| 2026-05-05 12:39 | 52.10706 | -0.71367 | 16747 ft | 407 kts | 328° |
| 2026-05-05 12:39 | 52.13153 | -0.73776 | 17440 ft | 411 kts | 328° |
| 2026-05-05 12:39 | 52.15591 | -0.76181 | 18103 ft | 415 kts | 328° |
| 2026-05-05 12:40 | 52.18058 | -0.78616 | 18801 ft | 420 kts | 327° |
| 2026-05-05 12:40 | 52.20555 | -0.81087 | 19440 ft | 425 kts | 327° |
| 2026-05-05 12:40 | 52.23097 | -0.83603 | 20094 ft | 430 kts | 327° |
| 2026-05-05 12:40 | 52.25653 | -0.86137 | 20734 ft | 434 kts | 327° |
| 2026-05-05 12:41 | 52.28248 | -0.88713 | 21330 ft | 440 kts | 327° |
| 2026-05-05 12:41 | 52.30844 | -0.91294 | 21945 ft | 443 kts | 327° |
| 2026-05-05 12:41 | 52.33484 | -0.93923 | 22544 ft | 447 kts | 327° |
| 2026-05-05 12:41 | 52.36143 | -0.96574 | 23125 ft | 450 kts | 327° |
| 2026-05-05 12:42 | 52.38837 | -0.99263 | 23679 ft | 454 kts | 327° |
| 2026-05-05 12:42 | 52.41511 | -1.01937 | 24214 ft | 457 kts | 327° |
| 2026-05-05 12:42 | 52.44243 | -1.04673 | 24693 ft | 461 kts | 327° |
| 2026-05-05 12:42 | 52.46974 | -1.07411 | 25183 ft | 465 kts | 327° |
| 2026-05-05 12:43 | 52.49720 | -1.10170 | 25631 ft | 468 kts | 327° |
| 2026-05-05 12:43 | 52.52502 | -1.12968 | 26079 ft | 472 kts | 327° |
| 2026-05-05 12:43 | 52.55316 | -1.15803 | 26522 ft | 474 kts | 327° |
| 2026-05-05 12:43 | 52.58121 | -1.18631 | 26890 ft | 478 kts | 327° |
| 2026-05-05 12:44 | 52.60959 | -1.21496 | 27277 ft | 481 kts | 327° |
| 2026-05-05 12:44 | 52.63812 | -1.24381 | 27656 ft | 483 kts | 327° |
| 2026-05-05 12:44 | 52.66675 | -1.27280 | 27959 ft | 487 kts | 327° |
| 2026-05-05 12:44 | 52.69555 | -1.30201 | 28327 ft | 488 kts | 327° |
| 2026-05-05 12:45 | 52.72435 | -1.33131 | 28597 ft | 491 kts | 327° |
| 2026-05-05 12:45 | 52.75351 | -1.36101 | 28899 ft | 493 kts | 328° |
| 2026-05-05 12:45 | 52.78260 | -1.39069 | 29203 ft | 494 kts | 328° |
| 2026-05-05 12:45 | 52.81166 | -1.42038 | 29477 ft | 495 kts | 328° |
| 2026-05-05 12:46 | 52.84075 | -1.45016 | 29866 ft | 493 kts | 328° |
| 2026-05-05 12:46 | 52.86972 | -1.47985 | 30215 ft | 493 kts | 328° |
| 2026-05-05 12:46 | 52.89888 | -1.50979 | 30465 ft | 493 kts | 328° |
| 2026-05-05 12:46 | 52.92788 | -1.53963 | 30818 ft | 490 kts | 329° |
| 2026-05-05 12:47 | 52.95663 | -1.56924 | 31094 ft | 489 kts | 329° |
| 2026-05-05 12:47 | 52.98530 | -1.59880 | 31355 ft | 488 kts | 329° |
| 2026-05-05 12:47 | 53.01403 | -1.62849 | 31615 ft | 487 kts | 329° |
| 2026-05-05 12:47 | 53.04285 | -1.65832 | 31800 ft | 488 kts | 328° |
| 2026-05-05 12:48 | 53.07163 | -1.68816 | 32001 ft | 482 kts | 328° |
| 2026-05-05 12:48 | 53.09980 | -1.71745 | 31966 ft | 480 kts | 328° |
| 2026-05-05 12:48 | 53.15648 | -1.77649 | 31983 ft | 480 kts | 328° |
| 2026-05-05 12:49 | 53.21172 | -1.83906 | 31995 ft | 481 kts | 319° |
| 2026-05-05 12:49 | 53.25482 | -1.92505 | 31994 ft | 484 kts | 301° |
| 2026-05-05 12:50 | 53.28595 | -2.02452 | 31990 ft | 484 kts | 297° |
| 2026-05-05 12:50 | 53.31621 | -2.12488 | 32001 ft | 485 kts | 297° |
| 2026-05-05 12:51 | 53.34608 | -2.22529 | 32015 ft | 486 kts | 297° |
| 2026-05-05 12:51 | 53.36966 | -2.33050 | 32032 ft | 483 kts | 289° |
| 2026-05-05 12:52 | 53.39030 | -2.43721 | 32025 ft | 479 kts | 289° |
| 2026-05-05 12:52 | 53.41045 | -2.54296 | 32031 ft | 478 kts | 289° |
| 2026-05-05 12:53 | 53.43044 | -2.64876 | 32030 ft | 477 kts | 289° |
| 2026-05-05 12:53 | 53.45039 | -2.75518 | 32034 ft | 477 kts | 288° |
| 2026-05-05 12:54 | 53.47979 | -2.91318 | 32040 ft | 474 kts | 287° |
| 2026-05-05 12:55 | 53.49916 | -3.01797 | 32036 ft | 467 kts | 288° |
| 2026-05-05 12:55 | 53.51837 | -3.12257 | 32034 ft | 468 kts | 287° |
| 2026-05-05 12:56 | 53.53746 | -3.22703 | 32038 ft | 468 kts | 287° |
| 2026-05-05 12:56 | 53.55648 | -3.33174 | 32037 ft | 468 kts | 287° |
| 2026-05-05 12:57 | 53.57522 | -3.43551 | 32039 ft | 467 kts | 287° |
| 2026-05-05 12:57 | 53.59391 | -3.53969 | 32035 ft | 467 kts | 287° |
| 2026-05-05 12:58 | 53.61221 | -3.64474 | 32034 ft | 466 kts | 283° |
| 2026-05-05 12:58 | 53.61928 | -3.75221 | 32042 ft | 466 kts | 274° |
| 2026-05-05 12:59 | 53.62403 | -3.86057 | 32040 ft | 465 kts | 274° |
| 2026-05-05 12:59 | 53.62847 | -3.96816 | 32042 ft | 466 kts | 273° |
| 2026-05-05 13:00 | 53.63492 | -4.13097 | 32047 ft | 464 kts | 273° |
| 2026-05-05 13:01 | 53.64309 | -4.34716 | 32046 ft | 464 kts | 273° |
| 2026-05-05 13:01 | 53.64702 | -4.45501 | 32047 ft | 464 kts | 273° |
| 2026-05-05 13:02 | 53.65085 | -4.56319 | 32048 ft | 464 kts | 273° |
| 2026-05-05 13:02 | 53.65459 | -4.67110 | 32049 ft | 463 kts | 272° |
| 2026-05-05 13:03 | 53.65821 | -4.77909 | 32051 ft | 462 kts | 272° |
| 2026-05-05 13:03 | 53.66177 | -4.88710 | 32053 ft | 463 kts | 272° |
| 2026-05-05 13:04 | 53.66525 | -4.99459 | 32055 ft | 463 kts | 272° |
| 2026-05-05 13:04 | 53.66865 | -5.10299 | 32055 ft | 463 kts | 272° |
| 2026-05-05 13:05 | 53.67189 | -5.21101 | 32054 ft | 463 kts | 272° |
| 2026-05-05 13:05 | 53.67499 | -5.31880 | 32054 ft | 463 kts | 272° |
| 2026-05-05 13:06 | 53.67800 | -5.42670 | 32056 ft | 463 kts | 272° |
| 2026-05-05 13:06 | 53.67997 | -5.53487 | 32056 ft | 463 kts | 269° |
| 2026-05-05 13:07 | 53.67889 | -5.64319 | 32059 ft | 463 kts | 269° |
| 2026-05-05 13:07 | 53.67784 | -5.75181 | 32061 ft | 464 kts | 268° |
| 2026-05-05 13:08 | 53.67674 | -5.85972 | 32061 ft | 463 kts | 269° |
| 2026-05-05 13:08 | 53.67554 | -5.96792 | 32061 ft | 463 kts | 269° |
| 2026-05-05 13:09 | 53.67425 | -6.07641 | 32063 ft | 464 kts | 269° |
| 2026-05-05 13:09 | 53.67285 | -6.18506 | 32065 ft | 464 kts | 269° |
| 2026-05-05 13:10 | 53.67137 | -6.29326 | 32067 ft | 464 kts | 269° |
| 2026-05-05 13:10 | 53.66978 | -6.40158 | 32064 ft | 464 kts | 269° |
| 2026-05-05 13:11 | 53.66810 | -6.50994 | 32064 ft | 463 kts | 269° |
| 2026-05-05 13:11 | 53.66632 | -6.61853 | 32065 ft | 464 kts | 269° |
| 2026-05-05 13:12 | 53.66444 | -6.72681 | 32071 ft | 465 kts | 268° |
| 2026-05-05 13:12 | 53.66247 | -6.83508 | 32069 ft | 464 kts | 268° |
| 2026-05-05 13:13 | 53.66040 | -6.94354 | 32070 ft | 465 kts | 268° |
| 2026-05-05 13:13 | 53.65822 | -7.05215 | 32072 ft | 465 kts | 268° |
| 2026-05-05 13:14 | 53.65594 | -7.16095 | 32073 ft | 464 kts | 269° |
| 2026-05-05 13:14 | 53.65357 | -7.26925 | 32070 ft | 464 kts | 268° |
| 2026-05-05 13:15 | 53.65112 | -7.37705 | 32073 ft | 464 kts | 269° |
| 2026-05-05 13:15 | 53.64856 | -7.48534 | 32071 ft | 464 kts | 269° |
| 2026-05-05 13:16 | 53.64589 | -7.59391 | 32072 ft | 464 kts | 268° |
| 2026-05-05 13:16 | 53.64208 | -7.70210 | 32076 ft | 465 kts | 264° |
| 2026-05-05 13:17 | 53.63578 | -7.81049 | 32077 ft | 466 kts | 265° |
| 2026-05-05 13:17 | 53.62953 | -7.91825 | 32073 ft | 465 kts | 265° |
| 2026-05-05 13:18 | 53.62318 | -8.02609 | 32075 ft | 464 kts | 265° |
| 2026-05-05 13:18 | 53.61677 | -8.13353 | 32073 ft | 464 kts | 265° |
| 2026-05-05 13:19 | 53.61022 | -8.24162 | 32081 ft | 464 kts | 265° |
| 2026-05-05 13:19 | 53.60361 | -8.34921 | 32084 ft | 463 kts | 265° |
| 2026-05-05 13:20 | 53.59689 | -8.45686 | 32086 ft | 463 kts | 265° |
| 2026-05-05 13:20 | 53.59009 | -8.56429 | 32088 ft | 464 kts | 265° |
| 2026-05-05 13:21 | 53.58322 | -8.67119 | 32094 ft | 464 kts | 265° |
| 2026-05-05 13:21 | 53.57622 | -8.77873 | 32096 ft | 464 kts | 265° |
| 2026-05-05 13:22 | 53.56911 | -8.88629 | 32098 ft | 463 kts | 265° |
| 2026-05-05 13:22 | 53.56191 | -8.99377 | 32101 ft | 463 kts | 265° |
| 2026-05-05 13:23 | 53.55468 | -9.10042 | 32104 ft | 463 kts | 265° |
| 2026-05-05 13:23 | 53.54726 | -9.20808 | 32106 ft | 463 kts | 265° |
| 2026-05-05 13:24 | 53.53983 | -9.31474 | 32110 ft | 462 kts | 265° |
| 2026-05-05 13:24 | 53.53227 | -9.42175 | 32111 ft | 462 kts | 265° |
| 2026-05-05 13:25 | 53.52465 | -9.52826 | 32108 ft | 462 kts | 265° |
| 2026-05-05 13:25 | 53.51691 | -9.63505 | 32109 ft | 462 kts | 264° |
| 2026-05-05 13:26 | 53.50908 | -9.74169 | 32113 ft | 462 kts | 264° |
| 2026-05-05 13:26 | 53.50112 | -9.84878 | 32114 ft | 462 kts | 264° |
| 2026-05-05 13:27 | 53.49313 | -9.95502 | 32115 ft | 462 kts | 264° |
| 2026-05-05 13:27 | 53.48501 | -10.06165 | 32114 ft | 462 kts | 264° |
| 2026-05-05 13:28 | 53.47674 | -10.16893 | 32119 ft | 462 kts | 264° |
| 2026-05-05 13:28 | 53.46842 | -10.27555 | 32122 ft | 462 kts | 264° |
| 2026-05-05 13:29 | 53.46004 | -10.38174 | 32125 ft | 461 kts | 264° |
| 2026-05-05 13:29 | 53.45155 | -10.48808 | 32122 ft | 462 kts | 264° |
| 2026-05-05 13:30 | 53.44298 | -10.59423 | 32126 ft | 462 kts | 264° |
| 2026-05-05 13:30 | 53.43431 | -10.70038 | 32130 ft | 463 kts | 263° |
| 2026-05-05 13:31 | 53.42547 | -10.80742 | 32127 ft | 463 kts | 263° |
| 2026-05-05 13:31 | 53.41656 | -10.91404 | 32131 ft | 463 kts | 263° |
| 2026-05-05 13:32 | 53.40760 | -11.02011 | 32134 ft | 462 kts | 263° |
| 2026-05-05 13:32 | 53.39856 | -11.12613 | 32131 ft | 462 kts | 263° |
| 2026-05-05 13:33 | 53.38938 | -11.23253 | 32143 ft | 461 kts | 263° |
| 2026-05-05 13:33 | 53.38016 | -11.33821 | 32141 ft | 462 kts | 263° |
| 2026-05-05 13:34 | 53.37080 | -11.44445 | 32143 ft | 462 kts | 263° |
| 2026-05-05 13:34 | 53.36138 | -11.55011 | 32146 ft | 462 kts | 263° |
| 2026-05-05 13:35 | 53.35181 | -11.65644 | 32152 ft | 462 kts | 263° |
| 2026-05-05 13:35 | 53.34218 | -11.76241 | 32149 ft | 462 kts | 263° |
| 2026-05-05 13:36 | 53.33250 | -11.86784 | 32155 ft | 461 kts | 262° |
| 2026-05-05 13:36 | 53.32267 | -11.97377 | 32160 ft | 461 kts | 262° |
| 2026-05-05 13:37 | 53.31281 | -12.07900 | 32163 ft | 461 kts | 262° |
| 2026-05-05 13:37 | 53.30285 | -12.18431 | 32161 ft | 461 kts | 262° |
| 2026-05-05 13:38 | 53.29279 | -12.28963 | 32159 ft | 461 kts | 262° |
| 2026-05-05 13:38 | 53.28264 | -12.39482 | 32156 ft | 461 kts | 262° |
| 2026-05-05 13:39 | 53.27236 | -12.50037 | 32156 ft | 460 kts | 262° |
| 2026-05-05 13:39 | 53.26205 | -12.60520 | 32157 ft | 460 kts | 262° |
| 2026-05-05 13:40 | 53.25163 | -12.71017 | 32156 ft | 461 kts | 262° |
| 2026-05-05 13:40 | 53.24106 | -12.81572 | 32157 ft | 461 kts | 261° |
| 2026-05-05 13:41 | 53.23047 | -12.92051 | 32155 ft | 461 kts | 261° |
| 2026-05-05 13:41 | 53.21972 | -13.02586 | 32160 ft | 461 kts | 261° |
| 2026-05-05 13:42 | 53.20886 | -13.13126 | 32165 ft | 460 kts | 262° |
| 2026-05-05 13:42 | 53.19799 | -13.23592 | 32163 ft | 460 kts | 262° |
| 2026-05-05 13:43 | 53.18694 | -13.34126 | 32171 ft | 460 kts | 261° |
| 2026-05-05 13:43 | 53.17590 | -13.44568 | 32162 ft | 459 kts | 261° |
| 2026-05-05 13:44 | 53.16476 | -13.55011 | 32165 ft | 460 kts | 261° |
| 2026-05-05 13:44 | 53.15345 | -13.65518 | 32172 ft | 459 kts | 261° |
| 2026-05-05 13:45 | 53.14218 | -13.75892 | 32181 ft | 459 kts | 261° |
| 2026-05-05 13:45 | 53.13078 | -13.86307 | 32183 ft | 459 kts | 261° |
| 2026-05-05 13:46 | 53.11927 | -13.96730 | 32183 ft | 459 kts | 261° |
| 2026-05-05 13:46 | 53.10768 | -14.07138 | 32176 ft | 458 kts | 261° |
| 2026-05-05 13:47 | 53.09603 | -14.17518 | 32176 ft | 458 kts | 261° |
| 2026-05-05 13:47 | 53.08427 | -14.27906 | 32178 ft | 458 kts | 261° |
| 2026-05-05 13:48 | 53.07237 | -14.38327 | 32175 ft | 458 kts | 261° |
| 2026-05-05 13:48 | 53.06050 | -14.48642 | 32177 ft | 458 kts | 261° |
| 2026-05-05 13:49 | 53.04848 | -14.59004 | 32176 ft | 457 kts | 261° |
| 2026-05-05 13:49 | 53.03633 | -14.69390 | 32180 ft | 457 kts | 259° |
| 2026-05-05 13:50 | 53.02421 | -14.79673 | 32180 ft | 456 kts | 259° |
| 2026-05-05 13:50 | 53.01195 | -14.89990 | 32179 ft | 456 kts | 259° |
| 2026-05-05 13:51 | 53.00566 | -15.00313 | 32192 ft | 453 kts | 274° |
| 2026-05-05 13:51 | 53.01965 | -15.10482 | 32192 ft | 455 kts | 292° |
| 2026-05-05 13:52 | 53.04382 | -15.20200 | 32184 ft | 457 kts | 291° |
| 2026-05-05 13:52 | 53.06660 | -15.29957 | 32187 ft | 456 kts | 290° |
| 2026-05-05 13:53 | 53.08898 | -15.39843 | 32188 ft | 456 kts | 290° |
| 2026-05-05 13:53 | 53.11091 | -15.49682 | 32187 ft | 456 kts | 289° |
| 2026-05-05 13:54 | 53.13270 | -15.59544 | 32197 ft | 455 kts | 289° |
| 2026-05-05 13:54 | 53.15447 | -15.69470 | 32193 ft | 455 kts | 289° |
| 2026-05-05 13:55 | 53.17607 | -15.79370 | 32199 ft | 455 kts | 289° |
| 2026-05-05 13:55 | 53.19746 | -15.89223 | 32202 ft | 455 kts | 288° |
| 2026-05-05 13:56 | 53.21897 | -15.99184 | 32198 ft | 456 kts | 288° |
| 2026-05-05 13:56 | 53.24027 | -16.09094 | 32200 ft | 456 kts | 288° |
| 2026-05-05 13:57 | 53.26144 | -16.18993 | 32201 ft | 456 kts | 288° |
| 2026-05-05 13:57 | 53.28262 | -16.28943 | 32205 ft | 456 kts | 288° |
| 2026-05-05 13:58 | 53.30358 | -16.38837 | 32204 ft | 456 kts | 288° |
| 2026-05-05 13:58 | 53.32457 | -16.48796 | 32200 ft | 456 kts | 288° |
| 2026-05-05 13:59 | 53.35597 | -16.63787 | 32195 ft | 456 kts | 288° |
| 2026-05-05 14:00 | 53.38720 | -16.78808 | 32206 ft | 456 kts | 287° |
| 2026-05-05 14:00 | 53.40790 | -16.88831 | 32200 ft | 457 kts | 287° |
| 2026-05-05 14:01 | 53.42852 | -16.98859 | 32201 ft | 457 kts | 287° |
| 2026-05-05 14:01 | 53.44912 | -17.08929 | 32203 ft | 457 kts | 287° |
| 2026-05-05 14:02 | 53.46954 | -17.18966 | 32203 ft | 457 kts | 287° |
| 2026-05-05 14:02 | 53.48999 | -17.29070 | 32203 ft | 458 kts | 287° |
| 2026-05-05 14:03 | 53.51038 | -17.39190 | 32207 ft | 459 kts | 287° |
| 2026-05-05 14:03 | 53.53068 | -17.49321 | 32208 ft | 458 kts | 287° |
| 2026-05-05 14:04 | 53.55090 | -17.59464 | 32215 ft | 459 kts | 287° |
| 2026-05-05 14:04 | 53.57098 | -17.69591 | 32211 ft | 459 kts | 287° |
| 2026-05-05 14:05 | 53.59110 | -17.79793 | 32207 ft | 459 kts | 287° |
| 2026-05-05 14:05 | 53.61105 | -17.89955 | 32206 ft | 460 kts | 287° |
| 2026-05-05 14:06 | 53.63108 | -18.00217 | 32204 ft | 460 kts | 287° |
| 2026-05-05 14:06 | 53.65093 | -18.10446 | 32202 ft | 461 kts | 287° |
| 2026-05-05 14:07 | 53.67069 | -18.20674 | 32209 ft | 462 kts | 287° |
| 2026-05-05 14:07 | 53.69038 | -18.30919 | 32214 ft | 462 kts | 287° |
| 2026-05-05 14:08 | 53.71008 | -18.41238 | 32201 ft | 462 kts | 287° |
| 2026-05-05 14:08 | 53.72967 | -18.51541 | 32220 ft | 463 kts | 287° |
| 2026-05-05 14:09 | 53.74926 | -18.61910 | 32227 ft | 464 kts | 287° |
| 2026-05-05 14:09 | 53.76868 | -18.72246 | 32238 ft | 464 kts | 286° |
| 2026-05-05 14:10 | 53.78805 | -18.82608 | 32221 ft | 464 kts | 286° |
| 2026-05-05 14:10 | 53.80729 | -18.92959 | 32221 ft | 464 kts | 286° |
| 2026-05-05 14:11 | 53.82652 | -19.03363 | 32222 ft | 464 kts | 286° |
| 2026-05-05 14:11 | 53.84556 | -19.13721 | 32227 ft | 464 kts | 287° |
| 2026-05-05 14:12 | 53.86466 | -19.24168 | 32218 ft | 466 kts | 287° |
| 2026-05-05 14:12 | 53.88366 | -19.34621 | 32219 ft | 467 kts | 287° |
| 2026-05-05 14:13 | 53.90268 | -19.45142 | 32218 ft | 467 kts | 287° |
| 2026-05-05 14:13 | 53.92151 | -19.55627 | 32215 ft | 468 kts | 287° |
| 2026-05-05 14:14 | 53.94038 | -19.66185 | 32208 ft | 470 kts | 286° |
| 2026-05-05 14:14 | 53.95920 | -19.76787 | 32207 ft | 470 kts | 287° |
| 2026-05-05 14:15 | 53.97792 | -19.87390 | 32203 ft | 470 kts | 287° |
| 2026-05-05 14:15 | 53.99559 | -19.98013 | 32214 ft | 471 kts | 281° |
| 2026-05-05 14:16 | 54.00261 | -20.09101 | 32213 ft | 473 kts | 275° |
| 2026-05-05 14:16 | 54.00776 | -20.20170 | 32236 ft | 472 kts | 275° |
| 2026-05-05 14:17 | 54.01242 | -20.31260 | 32230 ft | 471 kts | 275° |
| 2026-05-05 14:17 | 54.01679 | -20.42328 | 32223 ft | 472 kts | 275° |
| 2026-05-05 14:18 | 54.02106 | -20.53555 | 32226 ft | 472 kts | 275° |
| 2026-05-05 14:18 | 54.02508 | -20.64484 | 32226 ft | 472 kts | 275° |
| 2026-05-05 14:19 | 54.02906 | -20.75618 | 32215 ft | 474 kts | 275° |
| 2026-05-05 14:19 | 54.03296 | -20.86805 | 32237 ft | 475 kts | 275° |
| 2026-05-05 14:20 | 54.03675 | -20.97985 | 32230 ft | 475 kts | 275° |
| 2026-05-05 14:20 | 54.04045 | -21.09224 | 32242 ft | 476 kts | 275° |
| 2026-05-05 14:21 | 54.04404 | -21.20433 | 32237 ft | 476 kts | 275° |
| 2026-05-05 14:21 | 54.04753 | -21.31659 | 32248 ft | 475 kts | 275° |
| 2026-05-05 14:22 | 54.05088 | -21.42799 | 32230 ft | 474 kts | 275° |
| 2026-05-05 14:22 | 54.05415 | -21.53979 | 32239 ft | 474 kts | 275° |
| 2026-05-05 14:23 | 54.05731 | -21.65166 | 32244 ft | 474 kts | 275° |
| 2026-05-05 14:23 | 54.06037 | -21.76362 | 32236 ft | 474 kts | 275° |
| 2026-05-05 14:24 | 54.06332 | -21.87540 | 32232 ft | 474 kts | 275° |
| 2026-05-05 14:24 | 54.06615 | -21.98648 | 32240 ft | 473 kts | 275° |
| 2026-05-05 14:25 | 54.06889 | -22.09771 | 32232 ft | 472 kts | 275° |
| 2026-05-05 14:25 | 54.07152 | -22.20907 | 32248 ft | 473 kts | 275° |
| 2026-05-05 14:26 | 54.07405 | -22.32077 | 32252 ft | 473 kts | 275° |
| 2026-05-05 14:26 | 54.07648 | -22.43224 | 32248 ft | 472 kts | 275° |
| 2026-05-05 14:27 | 54.07879 | -22.54340 | 32257 ft | 472 kts | 275° |
| 2026-05-05 14:27 | 54.08101 | -22.65467 | 32253 ft | 472 kts | 274° |
| 2026-05-05 14:28 | 54.08312 | -22.76583 | 32253 ft | 473 kts | 274° |
| 2026-05-05 14:28 | 54.08514 | -22.87770 | 32254 ft | 473 kts | 275° |
| 2026-05-05 14:29 | 54.08705 | -22.98892 | 32256 ft | 473 kts | 275° |
| 2026-05-05 14:29 | 54.08886 | -23.10067 | 32251 ft | 473 kts | 275° |
| 2026-05-05 14:30 | 54.09057 | -23.21237 | 32249 ft | 474 kts | 275° |
| 2026-05-05 14:30 | 54.09217 | -23.32423 | 32248 ft | 473 kts | 275° |
| 2026-05-05 14:31 | 54.09367 | -23.43566 | 32247 ft | 473 kts | 275° |
| 2026-05-05 14:31 | 54.09507 | -23.54742 | 32252 ft | 473 kts | 275° |
| 2026-05-05 14:32 | 54.09636 | -23.65913 | 32256 ft | 474 kts | 274° |
| 2026-05-05 14:32 | 54.09755 | -23.77095 | 32254 ft | 474 kts | 274° |
| 2026-05-05 14:33 | 54.09864 | -23.88329 | 32260 ft | 474 kts | 274° |
| 2026-05-05 14:33 | 54.09963 | -23.99557 | 32254 ft | 474 kts | 274° |
| 2026-05-05 14:34 | 54.10051 | -24.10708 | 32269 ft | 474 kts | 275° |
| 2026-05-05 14:34 | 54.10128 | -24.21962 | 32277 ft | 475 kts | 275° |
| 2026-05-05 14:35 | 54.10196 | -24.33166 | 32284 ft | 475 kts | 275° |
| 2026-05-05 14:35 | 54.10253 | -24.44404 | 32285 ft | 476 kts | 275° |
| 2026-05-05 14:36 | 54.10300 | -24.55683 | 32285 ft | 477 kts | 275° |
| 2026-05-05 14:36 | 54.10336 | -24.66880 | 32282 ft | 476 kts | 274° |
| 2026-05-05 14:37 | 54.10361 | -24.78146 | 32284 ft | 476 kts | 275° |
| 2026-05-05 14:37 | 54.10377 | -24.89439 | 32288 ft | 478 kts | 274° |
| 2026-05-05 14:38 | 54.10381 | -25.00699 | 32285 ft | 477 kts | 275° |
| 2026-05-05 14:38 | 54.10375 | -25.11925 | 32282 ft | 478 kts | 275° |
| 2026-05-05 14:39 | 54.10358 | -25.23255 | 32287 ft | 478 kts | 275° |
| 2026-05-05 14:39 | 54.10332 | -25.34580 | 32288 ft | 478 kts | 275° |
| 2026-05-05 14:40 | 54.10294 | -25.45857 | 32295 ft | 479 kts | 275° |
| 2026-05-05 14:40 | 54.10245 | -25.57229 | 32298 ft | 479 kts | 275° |
| 2026-05-05 14:41 | 54.10186 | -25.68469 | 32302 ft | 479 kts | 275° |
| 2026-05-05 14:41 | 54.10117 | -25.79805 | 32300 ft | 481 kts | 275° |
| 2026-05-05 14:42 | 54.10037 | -25.91170 | 32301 ft | 483 kts | 275° |
| 2026-05-05 14:42 | 54.09945 | -26.02574 | 32303 ft | 483 kts | 275° |
| 2026-05-05 14:43 | 54.09842 | -26.14011 | 32298 ft | 482 kts | 275° |
| 2026-05-05 14:43 | 54.09729 | -26.25395 | 32288 ft | 483 kts | 275° |
| 2026-05-05 14:44 | 54.09605 | -26.36783 | 32279 ft | 482 kts | 275° |
| 2026-05-05 14:44 | 54.09471 | -26.48174 | 32285 ft | 482 kts | 275° |
| 2026-05-05 14:45 | 54.09327 | -26.59486 | 32284 ft | 482 kts | 275° |
| 2026-05-05 14:45 | 54.09170 | -26.70900 | 32288 ft | 482 kts | 274° |
| 2026-05-05 14:46 | 54.09005 | -26.82224 | 32286 ft | 482 kts | 274° |
| 2026-05-05 14:46 | 54.08826 | -26.93642 | 32285 ft | 482 kts | 274° |
| 2026-05-05 14:47 | 54.08638 | -27.05044 | 32286 ft | 481 kts | 274° |
| 2026-05-05 14:47 | 54.08440 | -27.16361 | 32289 ft | 481 kts | 274° |
| 2026-05-05 14:48 | 54.08231 | -27.27712 | 32289 ft | 481 kts | 274° |
| 2026-05-05 14:48 | 54.08011 | -27.39074 | 32294 ft | 480 kts | 274° |
| 2026-05-05 14:49 | 54.07782 | -27.50377 | 32292 ft | 479 kts | 274° |
| 2026-05-05 14:49 | 54.07541 | -27.61705 | 32306 ft | 478 kts | 274° |
| 2026-05-05 14:50 | 54.07290 | -27.73042 | 32310 ft | 479 kts | 273° |
| 2026-05-05 14:50 | 54.07028 | -27.84335 | 32312 ft | 478 kts | 272° |
| 2026-05-05 14:51 | 54.06757 | -27.95590 | 32307 ft | 477 kts | 272° |
| 2026-05-05 14:51 | 54.06476 | -28.06835 | 32305 ft | 478 kts | 272° |
| 2026-05-05 14:52 | 54.06184 | -28.18113 | 32294 ft | 477 kts | 272° |
| 2026-05-05 14:52 | 54.05880 | -28.29387 | 32294 ft | 476 kts | 272° |
| 2026-05-05 14:53 | 54.05568 | -28.40609 | 32303 ft | 475 kts | 272° |
| 2026-05-05 14:53 | 54.05246 | -28.51810 | 32306 ft | 476 kts | 272° |
| 2026-05-05 14:54 | 54.04913 | -28.63020 | 32301 ft | 476 kts | 272° |
| 2026-05-05 14:54 | 54.04568 | -28.74294 | 32304 ft | 475 kts | 271° |
| 2026-05-05 14:55 | 54.04214 | -28.85501 | 32301 ft | 475 kts | 271° |
| 2026-05-05 14:55 | 54.03852 | -28.96650 | 32307 ft | 475 kts | 271° |
| 2026-05-05 14:56 | 54.03477 | -29.07868 | 32304 ft | 476 kts | 271° |
| 2026-05-05 14:56 | 54.03091 | -29.19101 | 32303 ft | 474 kts | 271° |
| 2026-05-05 14:57 | 54.02695 | -29.30323 | 32302 ft | 474 kts | 270° |
| 2026-05-05 14:57 | 54.02291 | -29.41464 | 32303 ft | 473 kts | 270° |
| 2026-05-05 14:58 | 54.01876 | -29.52604 | 32305 ft | 473 kts | 270° |
| 2026-05-05 14:58 | 54.01453 | -29.63731 | 32307 ft | 473 kts | 270° |
| 2026-05-05 14:59 | 54.01017 | -29.74913 | 32304 ft | 473 kts | 269° |
| 2026-05-05 14:59 | 54.00573 | -29.86007 | 32307 ft | 472 kts | 269° |
| 2026-05-05 15:00 | 54.00193 | -29.95324 | 32305 ft | 472 kts | 269° |
| 2026-05-05 15:00 | 54.00222 | -30.08197 | 32315 ft | 468 kts | 278° |
| 2026-05-05 15:01 | 54.00742 | -30.19261 | 32295 ft | 470 kts | 277° |
| 2026-05-05 15:01 | 54.01204 | -30.30277 | 32298 ft | 469 kts | 277° |
| 2026-05-05 15:02 | 54.01643 | -30.41339 | 32296 ft | 469 kts | 276° |
| 2026-05-05 15:02 | 54.02066 | -30.52456 | 32294 ft | 469 kts | 276° |
| 2026-05-05 15:03 | 54.02475 | -30.63543 | 32290 ft | 469 kts | 276° |
| 2026-05-05 15:03 | 54.02871 | -30.74579 | 32286 ft | 469 kts | 275° |
| 2026-05-05 15:04 | 54.03261 | -30.85740 | 32282 ft | 470 kts | 275° |
| 2026-05-05 15:04 | 54.03638 | -30.96842 | 32278 ft | 470 kts | 275° |
| 2026-05-05 15:05 | 54.04184 | -31.13489 | 32282 ft | 470 kts | 275° |
| 2026-05-05 15:06 | 54.04536 | -31.24586 | 32278 ft | 470 kts | 274° |
| 2026-05-05 15:06 | 54.04878 | -31.35740 | 32273 ft | 471 kts | 274° |
| 2026-05-05 15:07 | 54.05209 | -31.46836 | 32275 ft | 471 kts | 274° |
| 2026-05-05 15:07 | 54.05530 | -31.57977 | 32267 ft | 472 kts | 274° |
| 2026-05-05 15:08 | 54.05842 | -31.69134 | 32268 ft | 473 kts | 273° |
| 2026-05-05 15:08 | 54.06142 | -31.80244 | 32268 ft | 473 kts | 273° |
| 2026-05-05 15:09 | 54.06433 | -31.91396 | 32262 ft | 474 kts | 272° |
| 2026-05-05 15:09 | 54.06715 | -32.02653 | 32261 ft | 474 kts | 272° |
| 2026-05-05 15:10 | 54.06986 | -32.13813 | 32260 ft | 473 kts | 272° |
| 2026-05-05 15:10 | 54.07245 | -32.24944 | 32258 ft | 474 kts | 272° |
| 2026-05-05 15:11 | 54.07497 | -32.36219 | 32256 ft | 476 kts | 272° |
| 2026-05-05 15:11 | 54.07736 | -32.47356 | 32252 ft | 474 kts | 272° |
| 2026-05-05 15:12 | 54.07967 | -32.58599 | 32251 ft | 476 kts | 271° |
| 2026-05-05 15:12 | 54.08186 | -32.69849 | 32245 ft | 479 kts | 270° |
| 2026-05-05 15:13 | 54.08396 | -32.81153 | 32242 ft | 479 kts | 270° |
| 2026-05-05 15:13 | 54.08596 | -32.92473 | 32245 ft | 480 kts | 270° |
| 2026-05-05 15:14 | 54.08787 | -33.03845 | 32240 ft | 481 kts | 270° |
| 2026-05-05 15:14 | 54.08966 | -33.15155 | 32233 ft | 481 kts | 270° |
| 2026-05-05 15:15 | 54.09137 | -33.26600 | 32228 ft | 481 kts | 270° |
| 2026-05-05 15:15 | 54.09294 | -33.37942 | 32225 ft | 481 kts | 270° |
| 2026-05-05 15:16 | 54.09441 | -33.49327 | 32221 ft | 482 kts | 270° |
| 2026-05-05 15:16 | 54.09578 | -33.60741 | 32215 ft | 484 kts | 270° |
| 2026-05-05 15:17 | 54.09705 | -33.72185 | 32213 ft | 484 kts | 269° |
| 2026-05-05 15:17 | 54.09821 | -33.83612 | 32207 ft | 485 kts | 269° |
| 2026-05-05 15:18 | 54.09926 | -33.95089 | 32199 ft | 487 kts | 268° |
| 2026-05-05 15:18 | 54.10020 | -34.06570 | 32197 ft | 487 kts | 268° |
| 2026-05-05 15:19 | 54.10104 | -34.18041 | 32195 ft | 488 kts | 268° |
| 2026-05-05 15:19 | 54.10177 | -34.29668 | 32195 ft | 489 kts | 268° |
| 2026-05-05 15:20 | 54.10239 | -34.41200 | 32193 ft | 490 kts | 268° |
| 2026-05-05 15:20 | 54.10289 | -34.52795 | 32191 ft | 490 kts | 268° |
| 2026-05-05 15:21 | 54.10329 | -34.64405 | 32187 ft | 492 kts | 268° |
| 2026-05-05 15:21 | 54.10358 | -34.75954 | 32183 ft | 492 kts | 267° |
| 2026-05-05 15:22 | 54.10375 | -34.87607 | 32183 ft | 493 kts | 267° |
| 2026-05-05 15:22 | 54.10382 | -34.99292 | 32179 ft | 494 kts | 267° |
| 2026-05-05 15:23 | 54.10376 | -35.10957 | 32177 ft | 496 kts | 266° |
| 2026-05-05 15:23 | 54.10361 | -35.22639 | 32171 ft | 496 kts | 266° |
| 2026-05-05 15:24 | 54.10333 | -35.34329 | 32170 ft | 497 kts | 266° |
| 2026-05-05 15:24 | 54.10294 | -35.46084 | 32163 ft | 499 kts | 266° |
| 2026-05-05 15:25 | 54.10242 | -35.57917 | 32155 ft | 500 kts | 266° |
| 2026-05-05 15:25 | 54.10181 | -35.69718 | 32150 ft | 499 kts | 265° |
| 2026-05-05 15:26 | 54.10106 | -35.81526 | 32146 ft | 501 kts | 265° |
| 2026-05-05 15:26 | 54.10020 | -35.93381 | 32142 ft | 502 kts | 265° |
| 2026-05-05 15:27 | 54.09922 | -36.05249 | 32134 ft | 503 kts | 265° |
| 2026-05-05 15:27 | 54.09813 | -36.17120 | 32127 ft | 503 kts | 265° |
| 2026-05-05 15:28 | 54.09691 | -36.29031 | 32129 ft | 504 kts | 265° |
| 2026-05-05 15:28 | 54.09559 | -36.40908 | 32127 ft | 504 kts | 264° |
| 2026-05-05 15:29 | 54.09413 | -36.52819 | 32125 ft | 505 kts | 264° |
| 2026-05-05 15:29 | 54.09256 | -36.64715 | 32123 ft | 507 kts | 264° |
| 2026-05-05 15:30 | 54.09088 | -36.76696 | 32111 ft | 506 kts | 263° |
| 2026-05-05 15:30 | 54.08906 | -36.88665 | 32107 ft | 507 kts | 263° |
| 2026-05-05 15:31 | 54.08712 | -37.00676 | 32111 ft | 507 kts | 263° |
| 2026-05-05 15:31 | 54.08506 | -37.12634 | 32109 ft | 507 kts | 263° |
| 2026-05-05 15:32 | 54.08290 | -37.24573 | 32101 ft | 508 kts | 263° |
| 2026-05-05 15:32 | 54.08060 | -37.36583 | 32107 ft | 510 kts | 263° |
| 2026-05-05 15:33 | 54.07819 | -37.48563 | 32102 ft | 509 kts | 263° |
| 2026-05-05 15:33 | 54.07566 | -37.60528 | 32102 ft | 508 kts | 263° |
| 2026-05-05 15:34 | 54.07300 | -37.72569 | 32089 ft | 509 kts | 262° |
| 2026-05-05 15:34 | 54.07025 | -37.84496 | 32090 ft | 508 kts | 262° |
| 2026-05-05 15:35 | 54.06733 | -37.96556 | 32089 ft | 509 kts | 262° |
| 2026-05-05 15:35 | 54.06432 | -38.08539 | 32087 ft | 510 kts | 262° |
| 2026-05-05 15:36 | 54.06119 | -38.20560 | 32082 ft | 508 kts | 262° |
| 2026-05-05 15:36 | 54.05796 | -38.32455 | 32085 ft | 506 kts | 262° |
| 2026-05-05 15:37 | 54.05456 | -38.44509 | 32082 ft | 509 kts | 262° |
| 2026-05-05 15:37 | 54.05107 | -38.56485 | 32078 ft | 509 kts | 262° |
| 2026-05-05 15:38 | 54.04749 | -38.68412 | 32073 ft | 508 kts | 261° |
| 2026-05-05 15:38 | 54.04377 | -38.80381 | 32070 ft | 505 kts | 261° |
| 2026-05-05 15:39 | 54.03996 | -38.92238 | 32076 ft | 506 kts | 261° |
| 2026-05-05 15:39 | 54.03600 | -39.04216 | 32067 ft | 505 kts | 261° |
| 2026-05-05 15:40 | 54.03195 | -39.16110 | 32069 ft | 504 kts | 261° |
| 2026-05-05 15:40 | 54.02777 | -39.27979 | 32070 ft | 504 kts | 261° |
| 2026-05-05 15:41 | 54.02349 | -39.39861 | 32075 ft | 502 kts | 261° |
| 2026-05-05 15:41 | 54.01912 | -39.51673 | 32071 ft | 501 kts | 261° |
| 2026-05-05 15:42 | 54.01463 | -39.63469 | 32069 ft | 501 kts | 261° |
| 2026-05-05 15:42 | 54.01000 | -39.75317 | 32069 ft | 501 kts | 261° |
| 2026-05-05 15:43 | 54.00528 | -39.87116 | 32068 ft | 499 kts | 261° |
| 2026-05-05 15:43 | 54.00039 | -39.98790 | 32066 ft | 497 kts | 259° |
| 2026-05-05 15:44 | 53.99387 | -40.10499 | 32073 ft | 498 kts | 259° |
| 2026-05-05 15:44 | 53.98722 | -40.22126 | 32067 ft | 495 kts | 259° |
| 2026-05-05 15:45 | 53.98038 | -40.33769 | 32062 ft | 493 kts | 259° |
| 2026-05-05 15:45 | 53.97348 | -40.45319 | 32062 ft | 493 kts | 259° |
| 2026-05-05 15:46 | 53.96642 | -40.56906 | 32057 ft | 495 kts | 259° |
| 2026-05-05 15:46 | 53.95926 | -40.68493 | 32058 ft | 491 kts | 259° |
| 2026-05-05 15:47 | 53.95203 | -40.79990 | 32053 ft | 491 kts | 259° |
| 2026-05-05 15:47 | 53.94467 | -40.91514 | 32042 ft | 491 kts | 259° |
| 2026-05-05 15:48 | 53.93724 | -41.02979 | 32047 ft | 492 kts | 259° |
| 2026-05-05 15:48 | 53.92973 | -41.14413 | 32049 ft | 489 kts | 259° |
| 2026-05-05 15:49 | 53.92207 | -41.25884 | 32043 ft | 489 kts | 259° |
| 2026-05-05 15:49 | 53.91434 | -41.37287 | 32038 ft | 488 kts | 259° |
| 2026-05-05 15:50 | 53.90652 | -41.48676 | 32034 ft | 488 kts | 259° |
| 2026-05-05 15:50 | 53.89857 | -41.60083 | 32035 ft | 487 kts | 259° |
| 2026-05-05 15:51 | 53.89050 | -41.71508 | 32039 ft | 487 kts | 258° |
| 2026-05-05 15:51 | 53.88235 | -41.82892 | 32035 ft | 487 kts | 258° |
| 2026-05-05 15:52 | 53.87412 | -41.94221 | 32036 ft | 485 kts | 258° |
| 2026-05-05 15:52 | 53.86580 | -42.05530 | 32032 ft | 485 kts | 258° |
| 2026-05-05 15:53 | 53.85736 | -42.16857 | 32021 ft | 485 kts | 258° |
| 2026-05-05 15:53 | 53.84885 | -42.28128 | 32015 ft | 484 kts | 258° |
| 2026-05-05 15:54 | 53.84021 | -42.39418 | 32013 ft | 485 kts | 258° |
| 2026-05-05 15:54 | 53.83155 | -42.50608 | 32010 ft | 484 kts | 258° |
| 2026-05-05 15:55 | 53.82272 | -42.61861 | 32010 ft | 483 kts | 258° |
| 2026-05-05 15:55 | 53.81377 | -42.73142 | 32006 ft | 483 kts | 257° |
| 2026-05-05 15:56 | 53.80470 | -42.84422 | 32001 ft | 485 kts | 257° |
| 2026-05-05 15:56 | 53.79555 | -42.95682 | 32000 ft | 483 kts | 257° |
| 2026-05-05 15:57 | 53.78634 | -43.06872 | 31994 ft | 483 kts | 257° |
| 2026-05-05 15:57 | 53.77698 | -43.18112 | 31991 ft | 483 kts | 257° |
| 2026-05-05 15:58 | 53.76754 | -43.29324 | 31986 ft | 483 kts | 257° |
| 2026-05-05 15:58 | 53.75805 | -43.40453 | 31982 ft | 482 kts | 257° |
| 2026-05-05 15:59 | 53.74839 | -43.51661 | 31976 ft | 481 kts | 257° |
| 2026-05-05 15:59 | 53.73871 | -43.62776 | 31972 ft | 481 kts | 257° |
| 2026-05-05 16:00 | 53.72890 | -43.73911 | 31969 ft | 482 kts | 257° |
| 2026-05-05 16:00 | 53.71902 | -43.85003 | 31968 ft | 480 kts | 257° |
| 2026-05-05 16:01 | 53.70902 | -43.96105 | 31959 ft | 481 kts | 257° |
| 2026-05-05 16:01 | 53.69892 | -44.07201 | 31958 ft | 480 kts | 257° |
| 2026-05-05 16:02 | 53.68871 | -44.18299 | 31941 ft | 479 kts | 257° |
| 2026-05-05 16:02 | 53.67841 | -44.29383 | 31951 ft | 480 kts | 257° |
| 2026-05-05 16:03 | 53.66801 | -44.40461 | 31937 ft | 480 kts | 257° |
| 2026-05-05 16:03 | 53.65752 | -44.51514 | 31930 ft | 478 kts | 257° |
| 2026-05-05 16:04 | 53.64693 | -44.62566 | 31930 ft | 478 kts | 257° |
| 2026-05-05 16:04 | 53.63628 | -44.73566 | 31922 ft | 478 kts | 256° |
| 2026-05-05 16:05 | 53.62553 | -44.84556 | 31909 ft | 478 kts | 256° |
| 2026-05-05 16:05 | 53.61465 | -44.95577 | 31909 ft | 477 kts | 256° |
| 2026-05-05 16:06 | 53.60368 | -45.06582 | 31902 ft | 475 kts | 256° |
| 2026-05-05 16:06 | 53.59272 | -45.17457 | 31902 ft | 476 kts | 256° |
| 2026-05-05 16:07 | 53.58158 | -45.28416 | 31895 ft | 475 kts | 256° |
| 2026-05-05 16:07 | 53.57038 | -45.39341 | 31895 ft | 475 kts | 256° |
| 2026-05-05 16:08 | 53.55908 | -45.50247 | 31886 ft | 476 kts | 256° |
| 2026-05-05 16:08 | 53.54762 | -45.61206 | 31882 ft | 474 kts | 256° |
| 2026-05-05 16:09 | 53.53618 | -45.72050 | 31877 ft | 473 kts | 256° |
| 2026-05-05 16:09 | 53.52469 | -45.82841 | 31872 ft | 472 kts | 256° |
| 2026-05-05 16:10 | 53.51303 | -45.93695 | 31863 ft | 472 kts | 256° |
| 2026-05-05 16:10 | 53.50129 | -46.04528 | 31857 ft | 472 kts | 256° |
| 2026-05-05 16:11 | 53.48949 | -46.15312 | 31852 ft | 472 kts | 256° |
| 2026-05-05 16:12 | 53.46565 | -46.36833 | 31854 ft | 471 kts | 256° |
| 2026-05-05 16:13 | 53.43536 | -46.63646 | 31847 ft | 470 kts | 256° |
| 2026-05-05 16:13 | 53.42307 | -46.74371 | 31843 ft | 469 kts | 256° |
| 2026-05-05 16:14 | 53.39814 | -46.95835 | 31824 ft | 470 kts | 256° |
| 2026-05-05 16:15 | 53.37292 | -47.17211 | 31812 ft | 469 kts | 256° |
| 2026-05-05 16:16 | 53.34735 | -47.38530 | 31807 ft | 469 kts | 256° |
| 2026-05-05 16:17 | 53.32792 | -47.54502 | 31802 ft | 468 kts | 256° |
| 2026-05-05 16:18 | 53.30832 | -47.70430 | 31799 ft | 468 kts | 255° |
| 2026-05-05 16:19 | 53.28853 | -47.86321 | 31786 ft | 467 kts | 255° |
| 2026-05-05 16:19 | 53.26863 | -48.02125 | 31781 ft | 467 kts | 255° |
| 2026-05-05 16:20 | 53.24164 | -48.23264 | 31769 ft | 467 kts | 255° |
| 2026-05-05 16:22 | 53.20749 | -48.49572 | 31756 ft | 465 kts | 255° |
| 2026-05-05 16:23 | 53.17979 | -48.70562 | 31725 ft | 464 kts | 255° |
| 2026-05-05 16:23 | 53.15879 | -48.86267 | 31715 ft | 464 kts | 255° |
| 2026-05-05 16:24 | 53.14468 | -48.96728 | 31704 ft | 465 kts | 255° |
| 2026-05-05 16:25 | 53.12339 | -49.12379 | 31697 ft | 462 kts | 255° |
| 2026-05-05 16:25 | 53.10191 | -49.28001 | 31699 ft | 462 kts | 255° |
| 2026-05-05 16:26 | 53.07300 | -49.48762 | 31693 ft | 462 kts | 255° |
| 2026-05-05 16:27 | 53.05844 | -49.59114 | 31681 ft | 461 kts | 255° |
| 2026-05-05 16:27 | 53.04383 | -49.69432 | 31680 ft | 461 kts | 255° |
| 2026-05-05 16:28 | 53.02908 | -49.79773 | 31674 ft | 462 kts | 255° |
| 2026-05-05 16:28 | 53.01432 | -49.90061 | 31667 ft | 462 kts | 255° |
| 2026-05-05 16:29 | 52.99700 | -50.00296 | 31667 ft | 459 kts | 248° |
| 2026-05-05 16:29 | 52.97464 | -50.10162 | 31659 ft | 459 kts | 248° |
| 2026-05-05 16:30 | 52.95160 | -50.19980 | 31662 ft | 457 kts | 247° |
| 2026-05-05 16:30 | 52.92823 | -50.29750 | 31666 ft | 458 kts | 247° |
| 2026-05-05 16:31 | 52.90454 | -50.39551 | 31659 ft | 458 kts | 247° |
| 2026-05-05 16:31 | 52.88085 | -50.49287 | 31656 ft | 457 kts | 247° |
| 2026-05-05 16:32 | 52.85689 | -50.59078 | 31644 ft | 457 kts | 247° |
| 2026-05-05 16:32 | 52.83295 | -50.68813 | 31635 ft | 458 kts | 246° |
| 2026-05-05 16:33 | 52.80910 | -50.78472 | 31640 ft | 457 kts | 246° |
| 2026-05-05 16:33 | 52.78506 | -50.88161 | 31639 ft | 457 kts | 246° |
| 2026-05-05 16:34 | 52.76088 | -50.97866 | 31642 ft | 456 kts | 247° |
| 2026-05-05 16:34 | 52.73670 | -51.07523 | 31624 ft | 456 kts | 247° |
| 2026-05-05 16:35 | 52.71257 | -51.17122 | 31632 ft | 456 kts | 247° |
| 2026-05-05 16:35 | 52.68829 | -51.26743 | 31630 ft | 455 kts | 247° |
| 2026-05-05 16:36 | 52.66398 | -51.36328 | 31626 ft | 455 kts | 247° |
| 2026-05-05 16:36 | 52.63951 | -51.45938 | 31616 ft | 456 kts | 247° |
| 2026-05-05 16:37 | 52.61489 | -51.55564 | 31613 ft | 456 kts | 247° |
| 2026-05-05 16:37 | 52.59037 | -51.65111 | 31617 ft | 455 kts | 246° |
| 2026-05-05 16:38 | 52.56559 | -51.74717 | 31615 ft | 455 kts | 246° |
| 2026-05-05 16:38 | 52.54089 | -51.84256 | 31601 ft | 455 kts | 246° |
| 2026-05-05 16:39 | 52.51619 | -51.93750 | 31605 ft | 454 kts | 246° |
| 2026-05-05 16:39 | 52.49140 | -52.03238 | 31598 ft | 454 kts | 247° |
| 2026-05-05 16:40 | 52.46650 | -52.12731 | 31588 ft | 455 kts | 247° |
| 2026-05-05 16:40 | 52.44138 | -52.22266 | 31599 ft | 453 kts | 247° |
| 2026-05-05 16:41 | 52.41655 | -52.31656 | 31587 ft | 453 kts | 247° |
| 2026-05-05 16:41 | 52.39151 | -52.41084 | 31592 ft | 453 kts | 247° |
| 2026-05-05 16:42 | 52.36623 | -52.50558 | 31596 ft | 452 kts | 247° |
| 2026-05-05 16:42 | 52.34094 | -52.60003 | 31597 ft | 452 kts | 247° |
| 2026-05-05 16:43 | 52.31579 | -52.69355 | 31593 ft | 452 kts | 246° |
| 2026-05-05 16:43 | 52.29055 | -52.78704 | 31586 ft | 451 kts | 246° |
| 2026-05-05 16:44 | 52.26526 | -52.88032 | 31578 ft | 451 kts | 247° |
| 2026-05-05 16:44 | 52.23990 | -52.97347 | 31590 ft | 450 kts | 247° |
| 2026-05-05 16:45 | 52.21452 | -53.06634 | 31587 ft | 450 kts | 247° |
| 2026-05-05 16:45 | 52.18891 | -53.15970 | 31587 ft | 450 kts | 247° |
| 2026-05-05 16:46 | 52.16350 | -53.25191 | 31597 ft | 450 kts | 247° |
| 2026-05-05 16:46 | 52.13782 | -53.34476 | 31603 ft | 450 kts | 247° |
| 2026-05-05 16:47 | 52.11212 | -53.43728 | 31594 ft | 450 kts | 248° |
| 2026-05-05 16:47 | 52.08637 | -53.52967 | 31585 ft | 450 kts | 248° |
| 2026-05-05 16:48 | 52.06056 | -53.62188 | 31593 ft | 450 kts | 248° |
| 2026-05-05 16:48 | 52.03453 | -53.71448 | 31599 ft | 449 kts | 247° |
| 2026-05-05 16:49 | 52.00871 | -53.80598 | 31606 ft | 448 kts | 247° |
| 2026-05-05 16:49 | 51.98274 | -53.89769 | 31608 ft | 447 kts | 247° |
| 2026-05-05 16:50 | 51.95682 | -53.98888 | 31594 ft | 448 kts | 247° |
| 2026-05-05 16:50 | 51.93072 | -54.08030 | 31623 ft | 448 kts | 248° |
| 2026-05-05 16:51 | 51.90477 | -54.17088 | 31610 ft | 446 kts | 248° |
| 2026-05-05 16:51 | 51.87859 | -54.26188 | 31607 ft | 447 kts | 248° |
| 2026-05-05 16:52 | 51.85248 | -54.35230 | 31594 ft | 446 kts | 248° |
| 2026-05-05 16:52 | 51.82623 | -54.44290 | 31590 ft | 445 kts | 248° |
| 2026-05-05 16:53 | 51.79912 | -54.53279 | 31584 ft | 447 kts | 243° |
| 2026-05-05 16:53 | 51.76737 | -54.61824 | 31618 ft | 447 kts | 243° |
| 2026-05-05 16:54 | 51.73490 | -54.70460 | 31594 ft | 447 kts | 242° |
| 2026-05-05 16:54 | 51.70245 | -54.79024 | 31610 ft | 447 kts | 242° |
| 2026-05-05 16:55 | 51.67027 | -54.87474 | 31612 ft | 447 kts | 242° |
| 2026-05-05 16:55 | 51.63782 | -54.95956 | 31587 ft | 447 kts | 242° |
| 2026-05-05 16:56 | 51.60516 | -55.04463 | 31622 ft | 446 kts | 242° |
| 2026-05-05 16:56 | 51.57265 | -55.12900 | 31606 ft | 446 kts | 243° |
| 2026-05-05 16:57 | 51.53990 | -55.21372 | 31601 ft | 445 kts | 243° |
| 2026-05-05 16:57 | 51.50745 | -55.29740 | 31615 ft | 445 kts | 243° |
| 2026-05-05 16:58 | 51.47477 | -55.38140 | 31619 ft | 445 kts | 243° |
| 2026-05-05 16:58 | 51.44208 | -55.46511 | 31614 ft | 445 kts | 243° |
| 2026-05-05 16:59 | 51.40914 | -55.54923 | 31622 ft | 445 kts | 243° |
| 2026-05-05 16:59 | 51.37627 | -55.63289 | 31640 ft | 445 kts | 243° |
| 2026-05-05 17:00 | 51.34329 | -55.71653 | 31625 ft | 446 kts | 243° |
| 2026-05-05 17:00 | 51.31047 | -55.79951 | 31624 ft | 444 kts | 243° |
| 2026-05-05 17:01 | 51.27751 | -55.88260 | 31659 ft | 444 kts | 243° |
| 2026-05-05 17:01 | 51.24446 | -55.96563 | 31635 ft | 443 kts | 243° |
| 2026-05-05 17:02 | 51.21124 | -56.04882 | 31635 ft | 445 kts | 243° |
| 2026-05-05 17:02 | 51.17809 | -56.13156 | 31609 ft | 444 kts | 243° |
| 2026-05-05 17:03 | 51.14504 | -56.21382 | 31600 ft | 445 kts | 243° |
| 2026-05-05 17:03 | 51.11170 | -56.29651 | 31605 ft | 446 kts | 243° |
| 2026-05-05 17:04 | 51.07818 | -56.37936 | 31618 ft | 445 kts | 244° |
| 2026-05-05 17:04 | 51.04494 | -56.46129 | 31638 ft | 445 kts | 244° |
| 2026-05-05 17:05 | 51.01137 | -56.54376 | 31649 ft | 446 kts | 244° |
| 2026-05-05 17:05 | 50.97770 | -56.62620 | 31620 ft | 445 kts | 244° |
| 2026-05-05 17:06 | 50.94391 | -56.70873 | 31648 ft | 447 kts | 243° |
| 2026-05-05 17:06 | 50.91011 | -56.79097 | 31654 ft | 445 kts | 243° |
| 2026-05-05 17:07 | 50.87618 | -56.87327 | 31641 ft | 446 kts | 243° |
| 2026-05-05 17:07 | 50.84204 | -56.95583 | 31650 ft | 450 kts | 244° |
| 2026-05-05 17:08 | 50.80787 | -57.03819 | 31650 ft | 448 kts | 244° |
| 2026-05-05 17:08 | 50.77379 | -57.12008 | 31647 ft | 448 kts | 244° |
| 2026-05-05 17:09 | 50.73954 | -57.20213 | 31654 ft | 448 kts | 244° |
| 2026-05-05 17:09 | 50.70535 | -57.28376 | 31670 ft | 447 kts | 244° |
| 2026-05-05 17:10 | 50.67108 | -57.36534 | 31671 ft | 448 kts | 244° |
| 2026-05-05 17:10 | 50.63685 | -57.44656 | 31685 ft | 446 kts | 244° |
| 2026-05-05 17:11 | 50.60254 | -57.52772 | 31689 ft | 445 kts | 244° |
| 2026-05-05 17:11 | 50.56822 | -57.60869 | 31688 ft | 446 kts | 245° |
| 2026-05-05 17:12 | 50.53363 | -57.68996 | 31708 ft | 446 kts | 244° |
| 2026-05-05 17:12 | 50.49918 | -57.77076 | 31717 ft | 449 kts | 244° |
| 2026-05-05 17:13 | 50.46452 | -57.85172 | 31720 ft | 445 kts | 244° |
| 2026-05-05 17:13 | 50.43012 | -57.93186 | 31726 ft | 445 kts | 244° |
| 2026-05-05 17:14 | 50.39565 | -58.01191 | 31740 ft | 446 kts | 244° |
| 2026-05-05 17:14 | 50.36084 | -58.09254 | 31757 ft | 446 kts | 244° |
| 2026-05-05 17:15 | 50.32630 | -58.17221 | 31742 ft | 443 kts | 244° |
| 2026-05-05 17:15 | 50.29153 | -58.25225 | 31749 ft | 445 kts | 244° |
| 2026-05-05 17:16 | 50.25684 | -58.33183 | 31747 ft | 444 kts | 244° |
| 2026-05-05 17:16 | 50.22229 | -58.41084 | 31750 ft | 444 kts | 244° |
| 2026-05-05 17:17 | 50.18750 | -58.49020 | 31734 ft | 444 kts | 245° |
| 2026-05-05 17:17 | 50.15278 | -58.56911 | 31750 ft | 441 kts | 244° |
| 2026-05-05 17:18 | 50.11820 | -58.64752 | 31755 ft | 442 kts | 244° |
| 2026-05-05 17:18 | 50.08317 | -58.72671 | 31766 ft | 442 kts | 244° |
| 2026-05-05 17:19 | 50.04841 | -58.80500 | 31769 ft | 440 kts | 244° |
| 2026-05-05 17:19 | 50.01361 | -58.88320 | 31767 ft | 442 kts | 244° |
| 2026-05-05 17:20 | 49.97858 | -58.96167 | 31779 ft | 441 kts | 244° |
| 2026-05-05 17:20 | 49.94386 | -59.03919 | 31773 ft | 438 kts | 244° |
| 2026-05-05 17:21 | 49.90911 | -59.11662 | 31769 ft | 439 kts | 244° |
| 2026-05-05 17:22 | 49.85645 | -59.23346 | 31759 ft | 440 kts | 244° |
| 2026-05-05 17:22 | 49.82144 | -59.31084 | 31772 ft | 442 kts | 244° |
| 2026-05-05 17:23 | 49.78604 | -59.38888 | 31780 ft | 443 kts | 244° |
| 2026-05-05 17:23 | 49.75075 | -59.46645 | 31771 ft | 442 kts | 243° |
| 2026-05-05 17:24 | 49.71541 | -59.54387 | 31783 ft | 441 kts | 243° |
| 2026-05-05 17:24 | 49.68014 | -59.62096 | 31771 ft | 443 kts | 244° |
| 2026-05-05 17:25 | 49.64446 | -59.69867 | 31799 ft | 445 kts | 243° |
| 2026-05-05 17:25 | 49.60888 | -59.77595 | 31795 ft | 444 kts | 243° |
| 2026-05-05 17:26 | 49.57296 | -59.85376 | 31800 ft | 445 kts | 243° |
| 2026-05-05 17:26 | 49.53726 | -59.93083 | 31785 ft | 442 kts | 243° |
| 2026-05-05 17:27 | 49.50154 | -60.00780 | 31795 ft | 445 kts | 243° |
| 2026-05-05 17:27 | 49.46571 | -60.08470 | 31778 ft | 443 kts | 243° |
| 2026-05-05 17:28 | 49.42989 | -60.16140 | 31790 ft | 443 kts | 243° |
| 2026-05-05 17:28 | 49.39397 | -60.23810 | 31788 ft | 442 kts | 242° |
| 2026-05-05 17:29 | 49.35807 | -60.31451 | 31796 ft | 443 kts | 242° |
| 2026-05-05 17:29 | 49.32210 | -60.39086 | 31791 ft | 443 kts | 242° |
| 2026-05-05 17:30 | 49.28611 | -60.46705 | 31795 ft | 443 kts | 242° |
| 2026-05-05 17:30 | 49.24994 | -60.54338 | 31787 ft | 443 kts | 242° |
| 2026-05-05 17:31 | 49.21384 | -60.61935 | 31784 ft | 443 kts | 242° |
| 2026-05-05 17:31 | 49.17758 | -60.69545 | 31800 ft | 444 kts | 241° |
| 2026-05-05 17:32 | 49.14113 | -60.77172 | 31788 ft | 443 kts | 241° |
| 2026-05-05 17:32 | 49.10479 | -60.84756 | 31800 ft | 445 kts | 240° |
| 2026-05-05 17:33 | 49.06847 | -60.92311 | 31792 ft | 444 kts | 241° |
| 2026-05-05 17:33 | 49.03185 | -60.99908 | 31787 ft | 440 kts | 240° |
| 2026-05-05 17:34 | 48.99564 | -61.07399 | 31784 ft | 441 kts | 241° |
| 2026-05-05 17:34 | 48.95921 | -61.14916 | 31786 ft | 441 kts | 240° |
| 2026-05-05 17:35 | 48.92262 | -61.22447 | 31793 ft | 443 kts | 240° |
| 2026-05-05 17:35 | 48.88604 | -61.29951 | 31773 ft | 440 kts | 240° |
| 2026-05-05 17:36 | 48.84958 | -61.37412 | 31781 ft | 440 kts | 240° |
| 2026-05-05 17:36 | 48.81325 | -61.44823 | 31786 ft | 440 kts | 240° |
| 2026-05-05 17:37 | 48.77675 | -61.52252 | 31783 ft | 440 kts | 240° |
| 2026-05-05 17:37 | 48.74038 | -61.59630 | 31790 ft | 439 kts | 240° |
| 2026-05-05 17:38 | 48.70376 | -61.67041 | 31798 ft | 439 kts | 239° |
| 2026-05-05 17:38 | 48.66707 | -61.74445 | 31801 ft | 439 kts | 239° |
| 2026-05-05 17:39 | 48.63048 | -61.81811 | 31798 ft | 439 kts | 239° |
| 2026-05-05 17:39 | 48.59385 | -61.89163 | 31796 ft | 440 kts | 239° |
| 2026-05-05 17:40 | 48.55708 | -61.96522 | 31795 ft | 439 kts | 239° |
| 2026-05-05 17:40 | 48.52034 | -62.03856 | 31794 ft | 437 kts | 239° |
| 2026-05-05 17:41 | 48.48377 | -62.11135 | 31791 ft | 438 kts | 239° |
| 2026-05-05 17:41 | 48.44695 | -62.18446 | 31789 ft | 437 kts | 239° |
| 2026-05-05 17:42 | 48.41022 | -62.25717 | 31790 ft | 436 kts | 239° |
| 2026-05-05 17:42 | 48.37349 | -62.32971 | 31785 ft | 437 kts | 239° |
| 2026-05-05 17:43 | 48.33683 | -62.40190 | 31774 ft | 437 kts | 239° |
| 2026-05-05 17:43 | 48.29997 | -62.47430 | 31767 ft | 435 kts | 239° |
| 2026-05-05 17:44 | 48.26340 | -62.54595 | 31766 ft | 437 kts | 239° |
| 2026-05-05 17:44 | 48.22640 | -62.61823 | 31767 ft | 437 kts | 239° |
| 2026-05-05 17:45 | 48.18948 | -62.69016 | 31783 ft | 436 kts | 238° |
| 2026-05-05 17:45 | 48.15244 | -62.76213 | 31779 ft | 436 kts | 238° |
| 2026-05-05 17:46 | 48.11563 | -62.83349 | 31785 ft | 437 kts | 238° |
| 2026-05-05 17:46 | 48.07855 | -62.90516 | 31771 ft | 434 kts | 238° |
| 2026-05-05 17:47 | 48.04158 | -62.97643 | 31776 ft | 433 kts | 238° |
| 2026-05-05 17:47 | 48.00454 | -63.04771 | 31782 ft | 437 kts | 238° |
| 2026-05-05 17:48 | 47.96747 | -63.11877 | 31766 ft | 434 kts | 238° |
| 2026-05-05 17:48 | 47.93059 | -63.18934 | 31756 ft | 435 kts | 238° |
| 2026-05-05 17:49 | 47.89356 | -63.26000 | 31755 ft | 435 kts | 238° |
| 2026-05-05 17:49 | 47.85617 | -63.33114 | 31762 ft | 436 kts | 238° |
| 2026-05-05 17:50 | 47.81879 | -63.40207 | 31751 ft | 435 kts | 238° |
| 2026-05-05 17:50 | 47.78146 | -63.47274 | 31753 ft | 436 kts | 238° |
| 2026-05-05 17:51 | 47.74408 | -63.54332 | 31747 ft | 435 kts | 237° |
| 2026-05-05 17:51 | 47.70676 | -63.61363 | 31753 ft | 436 kts | 237° |
| 2026-05-05 17:52 | 47.66917 | -63.68422 | 31761 ft | 437 kts | 237° |
| 2026-05-05 17:52 | 47.63129 | -63.75518 | 31762 ft | 438 kts | 237° |
| 2026-05-05 17:53 | 47.59366 | -63.82551 | 31749 ft | 437 kts | 237° |
| 2026-05-05 17:53 | 47.55592 | -63.89587 | 31763 ft | 438 kts | 236° |
| 2026-05-05 17:54 | 47.51811 | -63.96614 | 31748 ft | 438 kts | 236° |
| 2026-05-05 17:54 | 47.48011 | -64.03660 | 31745 ft | 437 kts | 236° |
| 2026-05-05 17:55 | 47.44247 | -64.10620 | 31737 ft | 436 kts | 236° |
| 2026-05-05 17:55 | 47.40452 | -64.17622 | 31738 ft | 437 kts | 236° |
| 2026-05-05 17:56 | 47.36652 | -64.24616 | 31733 ft | 439 kts | 236° |
| 2026-05-05 17:56 | 47.32856 | -64.31581 | 31726 ft | 437 kts | 236° |
| 2026-05-05 17:57 | 47.29041 | -64.38565 | 31719 ft | 437 kts | 236° |
| 2026-05-05 17:57 | 47.25251 | -64.45488 | 31721 ft | 439 kts | 236° |
| 2026-05-05 17:58 | 47.21434 | -64.52438 | 31722 ft | 437 kts | 236° |
| 2026-05-05 17:58 | 47.17587 | -64.59427 | 31729 ft | 438 kts | 236° |
| 2026-05-05 17:59 | 47.13742 | -64.66395 | 31726 ft | 438 kts | 235° |
| 2026-05-05 17:59 | 47.09917 | -64.73309 | 31726 ft | 437 kts | 234° |
| 2026-05-05 18:00 | 47.06082 | -64.80223 | 31730 ft | 437 kts | 235° |
| 2026-05-05 18:00 | 47.02245 | -64.87122 | 31735 ft | 436 kts | 235° |
| 2026-05-05 18:01 | 46.98441 | -64.93945 | 31743 ft | 435 kts | 235° |
| 2026-05-05 18:01 | 46.94622 | -65.00783 | 31744 ft | 434 kts | 235° |
| 2026-05-05 18:02 | 46.90798 | -65.07612 | 31746 ft | 436 kts | 235° |
| 2026-05-05 18:02 | 46.86949 | -65.14465 | 31753 ft | 435 kts | 234° |
| 2026-05-05 18:03 | 46.83097 | -65.21305 | 31749 ft | 435 kts | 234° |
| 2026-05-05 18:03 | 46.79265 | -65.28094 | 31755 ft | 436 kts | 234° |
| 2026-05-05 18:04 | 46.75427 | -65.34878 | 31745 ft | 435 kts | 234° |
| 2026-05-05 18:04 | 46.71575 | -65.41669 | 31749 ft | 436 kts | 234° |
| 2026-05-05 18:05 | 46.67710 | -65.48465 | 31756 ft | 437 kts | 234° |
| 2026-05-05 18:05 | 46.63840 | -65.55254 | 31757 ft | 436 kts | 234° |
| 2026-05-05 18:06 | 46.59950 | -65.62063 | 31764 ft | 437 kts | 234° |
| 2026-05-05 18:06 | 46.56073 | -65.68830 | 31776 ft | 438 kts | 233° |
| 2026-05-05 18:07 | 46.52186 | -65.75600 | 31774 ft | 437 kts | 233° |
| 2026-05-05 18:07 | 46.48280 | -65.82383 | 31757 ft | 439 kts | 233° |
| 2026-05-05 18:08 | 46.44349 | -65.89195 | 31751 ft | 439 kts | 233° |
| 2026-05-05 18:08 | 46.40433 | -65.95965 | 31755 ft | 439 kts | 233° |
| 2026-05-05 18:09 | 46.36491 | -66.02762 | 31761 ft | 441 kts | 233° |
| 2026-05-05 18:09 | 46.32563 | -66.09518 | 31762 ft | 440 kts | 233° |
| 2026-05-05 18:10 | 46.28639 | -66.16252 | 31778 ft | 439 kts | 233° |
| 2026-05-05 18:10 | 46.24696 | -66.23002 | 31758 ft | 438 kts | 233° |
| 2026-05-05 18:11 | 46.20777 | -66.29692 | 31771 ft | 440 kts | 233° |
| 2026-05-05 18:11 | 46.16846 | -66.36388 | 31747 ft | 438 kts | 233° |
| 2026-05-05 18:12 | 46.12928 | -66.43046 | 31745 ft | 437 kts | 233° |
| 2026-05-05 18:12 | 46.08979 | -66.49741 | 31750 ft | 438 kts | 233° |
| 2026-05-05 18:13 | 46.05074 | -66.56344 | 31753 ft | 436 kts | 233° |
| 2026-05-05 18:13 | 46.01128 | -66.63003 | 31746 ft | 436 kts | 233° |
| 2026-05-05 18:14 | 45.97185 | -66.69637 | 31754 ft | 435 kts | 232° |
| 2026-05-05 18:14 | 45.93256 | -66.76235 | 31771 ft | 438 kts | 232° |
| 2026-05-05 18:15 | 45.89304 | -66.82856 | 31775 ft | 437 kts | 232° |
| 2026-05-05 18:15 | 45.85334 | -66.89489 | 31778 ft | 437 kts | 232° |
| 2026-05-05 18:16 | 45.81379 | -66.96081 | 31785 ft | 437 kts | 232° |
| 2026-05-05 18:16 | 45.77417 | -67.02670 | 31767 ft | 437 kts | 232° |
| 2026-05-05 18:17 | 45.73475 | -67.09210 | 31778 ft | 437 kts | 232° |
| 2026-05-05 18:17 | 45.69505 | -67.15782 | 31771 ft | 438 kts | 232° |
| 2026-05-05 18:18 | 45.65535 | -67.22337 | 31771 ft | 436 kts | 232° |
| 2026-05-05 18:18 | 45.61568 | -67.28871 | 31778 ft | 437 kts | 232° |
| 2026-05-05 18:19 | 45.57599 | -67.35396 | 31776 ft | 439 kts | 232° |
| 2026-05-05 18:19 | 45.53592 | -67.41965 | 31771 ft | 437 kts | 232° |
| 2026-05-05 18:20 | 45.49596 | -67.48501 | 31753 ft | 440 kts | 232° |
| 2026-05-05 18:20 | 45.45602 | -67.55019 | 31768 ft | 438 kts | 232° |
| 2026-05-05 18:21 | 45.41612 | -67.61516 | 31760 ft | 439 kts | 232° |
| 2026-05-05 18:21 | 45.37576 | -67.68070 | 31783 ft | 440 kts | 231° |
| 2026-05-05 18:22 | 45.33531 | -67.74582 | 31786 ft | 439 kts | 230° |
| 2026-05-05 18:22 | 45.29464 | -67.81021 | 31761 ft | 438 kts | 230° |
| 2026-05-05 18:23 | 45.25408 | -67.87421 | 31768 ft | 438 kts | 230° |
| 2026-05-05 18:23 | 45.21319 | -67.93853 | 31749 ft | 440 kts | 230° |
| 2026-05-05 18:24 | 45.17218 | -68.00287 | 31763 ft | 440 kts | 230° |
| 2026-05-05 18:24 | 45.13139 | -68.06673 | 31757 ft | 439 kts | 230° |
| 2026-05-05 18:25 | 45.09049 | -68.13059 | 31770 ft | 439 kts | 230° |
| 2026-05-05 18:25 | 45.04936 | -68.19468 | 31771 ft | 440 kts | 230° |
| 2026-05-05 18:26 | 45.00810 | -68.25882 | 31781 ft | 441 kts | 230° |
| 2026-05-05 18:26 | 44.96684 | -68.32279 | 31788 ft | 441 kts | 230° |
| 2026-05-05 18:27 | 44.92564 | -68.38654 | 31785 ft | 440 kts | 230° |
| 2026-05-05 18:27 | 44.88452 | -68.45001 | 31787 ft | 440 kts | 230° |
| 2026-05-05 18:28 | 44.82292 | -68.54483 | 31779 ft | 439 kts | 230° |
| 2026-05-05 18:28 | 44.78160 | -68.60825 | 31766 ft | 439 kts | 230° |
| 2026-05-05 18:29 | 44.74025 | -68.67156 | 31778 ft | 439 kts | 229° |
| 2026-05-05 18:29 | 44.69897 | -68.73464 | 31777 ft | 441 kts | 229° |
| 2026-05-05 18:30 | 44.65767 | -68.79760 | 31782 ft | 439 kts | 229° |
| 2026-05-05 18:30 | 44.61615 | -68.86076 | 31786 ft | 441 kts | 229° |
| 2026-05-05 18:31 | 44.57489 | -68.92338 | 31767 ft | 439 kts | 229° |
| 2026-05-05 18:31 | 44.53362 | -68.98586 | 31768 ft | 437 kts | 229° |
| 2026-05-05 18:32 | 44.49205 | -69.04866 | 31779 ft | 439 kts | 229° |
| 2026-05-05 18:32 | 44.45066 | -69.11105 | 31765 ft | 440 kts | 229° |
| 2026-05-05 18:33 | 44.40896 | -69.17377 | 31765 ft | 439 kts | 229° |
| 2026-05-05 18:33 | 44.36765 | -69.23576 | 31781 ft | 440 kts | 229° |
| 2026-05-05 18:34 | 44.32584 | -69.29838 | 31793 ft | 441 kts | 229° |
| 2026-05-05 18:34 | 44.28423 | -69.36052 | 31784 ft | 440 kts | 229° |
| 2026-05-05 18:35 | 44.24250 | -69.42272 | 31786 ft | 439 kts | 229° |
| 2026-05-05 18:35 | 44.20055 | -69.48511 | 31792 ft | 441 kts | 229° |
| 2026-05-05 18:36 | 44.15868 | -69.54726 | 31770 ft | 441 kts | 229° |
| 2026-05-05 18:36 | 44.11692 | -69.60909 | 31783 ft | 440 kts | 229° |
| 2026-05-05 18:37 | 44.07493 | -69.67113 | 31794 ft | 441 kts | 228° |
| 2026-05-05 18:37 | 44.03295 | -69.73300 | 31794 ft | 442 kts | 228° |
| 2026-05-05 18:38 | 43.99067 | -69.79520 | 31796 ft | 442 kts | 228° |
| 2026-05-05 18:38 | 43.94854 | -69.85702 | 31790 ft | 441 kts | 228° |
| 2026-05-05 18:39 | 43.90648 | -69.91863 | 31793 ft | 443 kts | 228° |
| 2026-05-05 18:39 | 43.86369 | -69.98114 | 31796 ft | 443 kts | 228° |
| 2026-05-05 18:40 | 43.82111 | -70.04324 | 31803 ft | 443 kts | 228° |
| 2026-05-05 18:40 | 43.77847 | -70.10525 | 31799 ft | 444 kts | 228° |
| 2026-05-05 18:41 | 43.73629 | -70.16647 | 31785 ft | 443 kts | 228° |
| 2026-05-05 18:41 | 43.69345 | -70.22852 | 31791 ft | 446 kts | 228° |
| 2026-05-05 18:42 | 43.65066 | -70.29035 | 31787 ft | 446 kts | 228° |
| 2026-05-05 18:42 | 43.60801 | -70.35186 | 31785 ft | 445 kts | 227° |
| 2026-05-05 18:43 | 43.56472 | -70.41415 | 31781 ft | 447 kts | 228° |
| 2026-05-05 18:43 | 43.52182 | -70.47572 | 31779 ft | 445 kts | 227° |
| 2026-05-05 18:44 | 43.47897 | -70.53709 | 31786 ft | 447 kts | 227° |
| 2026-05-05 18:44 | 43.43571 | -70.59894 | 31783 ft | 447 kts | 227° |
| 2026-05-05 18:45 | 43.39575 | -70.66413 | 31797 ft | 448 kts | 232° |
| 2026-05-05 18:45 | 43.35714 | -70.73087 | 31779 ft | 447 kts | 232° |
| 2026-05-05 18:46 | 43.31830 | -70.79770 | 31781 ft | 446 kts | 232° |
| 2026-05-05 18:46 | 43.27961 | -70.86402 | 31787 ft | 448 kts | 232° |
| 2026-05-05 18:47 | 43.24078 | -70.93040 | 31772 ft | 447 kts | 232° |
| 2026-05-05 18:47 | 43.20179 | -70.99686 | 31765 ft | 448 kts | 232° |
| 2026-05-05 18:48 | 43.16265 | -71.06341 | 31773 ft | 449 kts | 232° |
| 2026-05-05 18:48 | 43.12367 | -71.12954 | 31782 ft | 448 kts | 232° |
| 2026-05-05 18:49 | 43.08427 | -71.19624 | 31786 ft | 450 kts | 232° |
| 2026-05-05 18:49 | 43.04514 | -71.26231 | 31798 ft | 448 kts | 232° |
| 2026-05-05 18:50 | 43.00573 | -71.32873 | 31796 ft | 448 kts | 232° |
| 2026-05-05 18:50 | 42.96661 | -71.39451 | 31799 ft | 449 kts | 232° |
| 2026-05-05 18:51 | 42.92724 | -71.46056 | 31789 ft | 449 kts | 232° |
| 2026-05-05 18:51 | 42.88768 | -71.52679 | 31794 ft | 449 kts | 232° |
| 2026-05-05 18:52 | 42.84802 | -71.59301 | 31790 ft | 451 kts | 233° |
| 2026-05-05 18:52 | 42.80844 | -71.65897 | 31812 ft | 450 kts | 232° |
| 2026-05-05 18:53 | 42.76867 | -71.72508 | 31806 ft | 451 kts | 232° |
| 2026-05-05 18:53 | 42.72883 | -71.79118 | 31819 ft | 453 kts | 232° |
| 2026-05-05 18:54 | 42.68865 | -71.85769 | 31824 ft | 452 kts | 232° |
| 2026-05-05 18:54 | 42.64875 | -71.92356 | 31816 ft | 453 kts | 232° |
| 2026-05-05 18:55 | 42.60865 | -71.98964 | 31841 ft | 455 kts | 233° |
| 2026-05-05 18:55 | 42.56858 | -72.05553 | 31836 ft | 453 kts | 232° |
| 2026-05-05 18:56 | 42.52851 | -72.12126 | 31825 ft | 453 kts | 232° |
| 2026-05-05 18:56 | 42.48816 | -72.18730 | 31824 ft | 454 kts | 232° |
| 2026-05-05 18:57 | 42.44779 | -72.25325 | 31824 ft | 456 kts | 233° |
| 2026-05-05 18:57 | 42.40747 | -72.31895 | 31817 ft | 454 kts | 233° |
| 2026-05-05 18:58 | 42.36731 | -72.38426 | 31826 ft | 455 kts | 233° |
| 2026-05-05 18:58 | 42.32676 | -72.45005 | 31825 ft | 456 kts | 233° |
| 2026-05-05 18:59 | 42.28611 | -72.51583 | 31822 ft | 455 kts | 233° |
| 2026-05-05 18:59 | 42.24558 | -72.58131 | 31821 ft | 455 kts | 233° |
| 2026-05-05 19:00 | 42.20522 | -72.64634 | 31817 ft | 456 kts | 233° |
| 2026-05-05 19:00 | 42.16431 | -72.71214 | 31827 ft | 457 kts | 232° |
| 2026-05-05 19:01 | 42.12505 | -72.77909 | 31826 ft | 456 kts | 234° |
| 2026-05-05 19:01 | 42.08595 | -72.84603 | 31833 ft | 456 kts | 234° |
| 2026-05-05 19:02 | 42.04645 | -72.91350 | 31842 ft | 456 kts | 233° |
| 2026-05-05 19:02 | 42.00726 | -72.98025 | 31847 ft | 457 kts | 233° |
| 2026-05-05 19:03 | 41.96734 | -73.04660 | 31846 ft | 458 kts | 229° |
| 2026-05-05 19:03 | 41.91690 | -73.09938 | 31852 ft | 463 kts | 216° |
| 2026-05-05 19:04 | 41.86275 | -73.14557 | 31854 ft | 465 kts | 216° |
| 2026-05-05 19:04 | 41.80758 | -73.19212 | 31859 ft | 465 kts | 216° |
| 2026-05-05 19:05 | 41.75306 | -73.23789 | 31853 ft | 463 kts | 216° |
| 2026-05-05 19:05 | 41.69808 | -73.28388 | 31857 ft | 465 kts | 216° |
| 2026-05-05 19:06 | 41.64733 | -73.33572 | 31873 ft | 459 kts | 230° |
| 2026-05-05 19:06 | 41.60538 | -73.39910 | 31867 ft | 458 kts | 232° |
| 2026-05-05 19:07 | 41.56324 | -73.46344 | 31857 ft | 456 kts | 232° |
| 2026-05-05 19:07 | 41.52162 | -73.52710 | 31864 ft | 456 kts | 232° |
| 2026-05-05 19:08 | 41.48009 | -73.59061 | 31860 ft | 456 kts | 233° |
| 2026-05-05 19:08 | 41.43839 | -73.65424 | 31865 ft | 456 kts | 232° |
| 2026-05-05 19:09 | 41.39634 | -73.71834 | 31872 ft | 460 kts | 232° |
| 2026-05-05 19:09 | 41.35434 | -73.78220 | 31860 ft | 458 kts | 232° |
| 2026-05-05 19:10 | 41.31181 | -73.84552 | 31867 ft | 460 kts | 232° |
| 2026-05-05 19:10 | 41.26889 | -73.90886 | 31856 ft | 461 kts | 231° |
| 2026-05-05 19:11 | 41.22615 | -73.97179 | 31851 ft | 460 kts | 232° |
| 2026-05-05 19:11 | 41.18331 | -74.03476 | 31854 ft | 460 kts | 232° |
| 2026-05-05 19:12 | 41.14062 | -74.09747 | 31851 ft | 457 kts | 233° |
| 2026-05-05 19:12 | 41.10038 | -74.16265 | 31869 ft | 459 kts | 234° |
| 2026-05-05 19:13 | 41.06031 | -74.22771 | 31869 ft | 457 kts | 234° |
| 2026-05-05 19:13 | 41.02009 | -74.29278 | 31871 ft | 457 kts | 235° |
| 2026-05-05 19:14 | 40.97980 | -74.35781 | 31875 ft | 458 kts | 235° |
| 2026-05-05 19:14 | 40.93950 | -74.42270 | 31885 ft | 456 kts | 235° |
| 2026-05-05 19:15 | 40.89949 | -74.48696 | 31879 ft | 456 kts | 235° |
| 2026-05-05 19:15 | 40.85866 | -74.55244 | 31879 ft | 457 kts | 235° |
| 2026-05-05 19:16 | 40.81832 | -74.61696 | 31870 ft | 457 kts | 235° |
| 2026-05-05 19:16 | 40.77760 | -74.68197 | 31889 ft | 458 kts | 234° |
| 2026-05-05 19:17 | 40.73706 | -74.74651 | 31879 ft | 455 kts | 234° |
| 2026-05-05 19:17 | 40.69686 | -74.81046 | 31882 ft | 456 kts | 234° |
| 2026-05-05 19:18 | 40.65627 | -74.87484 | 31890 ft | 456 kts | 234° |
| 2026-05-05 19:18 | 40.61577 | -74.93896 | 31883 ft | 455 kts | 234° |
| 2026-05-05 19:19 | 40.57541 | -75.00272 | 31887 ft | 456 kts | 234° |
| 2026-05-05 19:19 | 40.53486 | -75.06702 | 31890 ft | 456 kts | 234° |
| 2026-05-05 19:20 | 40.49451 | -75.13107 | 31897 ft | 455 kts | 234° |
| 2026-05-05 19:20 | 40.45628 | -75.19165 | 31895 ft | 457 kts | 234° |
| 2026-05-05 19:21 | 40.41588 | -75.25554 | 31890 ft | 456 kts | 234° |
| 2026-05-05 19:21 | 40.37551 | -75.31927 | 31888 ft | 458 kts | 234° |
| 2026-05-05 19:22 | 40.33480 | -75.38335 | 31886 ft | 456 kts | 234° |
| 2026-05-05 19:22 | 40.29420 | -75.44716 | 31891 ft | 457 kts | 234° |
| 2026-05-05 19:23 | 40.25351 | -75.51100 | 31895 ft | 458 kts | 234° |
| 2026-05-05 19:23 | 40.21408 | -75.57600 | 31888 ft | 452 kts | 240° |
| 2026-05-05 19:24 | 40.17981 | -75.64455 | 31889 ft | 453 kts | 240° |
| 2026-05-05 19:24 | 40.14505 | -75.71362 | 31896 ft | 454 kts | 240° |
| 2026-05-05 19:25 | 40.11046 | -75.78223 | 31903 ft | 455 kts | 240° |
| 2026-05-05 19:25 | 40.07547 | -75.85145 | 31900 ft | 454 kts | 240° |
| 2026-05-05 19:26 | 40.04084 | -75.91981 | 31907 ft | 454 kts | 240° |
| 2026-05-05 19:26 | 40.00568 | -75.98907 | 31913 ft | 454 kts | 240° |
| 2026-05-05 19:27 | 39.97002 | -76.05914 | 31911 ft | 455 kts | 240° |
| 2026-05-05 19:27 | 39.93516 | -76.12748 | 31899 ft | 454 kts | 240° |
| 2026-05-05 19:28 | 39.90015 | -76.19599 | 31892 ft | 455 kts | 240° |
| 2026-05-05 19:28 | 39.86521 | -76.26422 | 31878 ft | 454 kts | 240° |
| 2026-05-05 19:29 | 39.83001 | -76.33282 | 31876 ft | 454 kts | 240° |
| 2026-05-05 19:29 | 39.79503 | -76.40086 | 31876 ft | 454 kts | 240° |
| 2026-05-05 19:30 | 39.76000 | -76.46882 | 31884 ft | 455 kts | 240° |
| 2026-05-05 19:30 | 39.72466 | -76.53722 | 31878 ft | 454 kts | 240° |
| 2026-05-05 19:31 | 39.68957 | -76.60500 | 31886 ft | 455 kts | 241° |
| 2026-05-05 19:31 | 39.65404 | -76.67350 | 31903 ft | 455 kts | 240° |
| 2026-05-05 19:32 | 39.61880 | -76.74129 | 31899 ft | 457 kts | 240° |
| 2026-05-05 19:32 | 39.58344 | -76.80912 | 31915 ft | 456 kts | 240° |
| 2026-05-05 19:33 | 39.54776 | -76.87747 | 31917 ft | 456 kts | 241° |
| 2026-05-05 19:33 | 39.51242 | -76.94495 | 31910 ft | 453 kts | 240° |
| 2026-05-05 19:34 | 39.46890 | -77.00466 | 31923 ft | 467 kts | 225° |
| 2026-05-05 19:35 | 39.39380 | -77.08464 | 31920 ft | 467 kts | 225° |
| 2026-05-05 19:35 | 39.34343 | -77.13776 | 31926 ft | 468 kts | 225° |
| 2026-05-05 19:36 | 39.29279 | -77.19093 | 31918 ft | 468 kts | 225° |
| 2026-05-05 19:36 | 39.24271 | -77.24336 | 31910 ft | 466 kts | 225° |
| 2026-05-05 19:37 | 39.19211 | -77.29622 | 31900 ft | 465 kts | 225° |
| 2026-05-05 19:37 | 39.14206 | -77.34841 | 31899 ft | 465 kts | 225° |
| 2026-05-05 19:38 | 39.09156 | -77.40099 | 31893 ft | 465 kts | 225° |
| 2026-05-05 19:38 | 39.04147 | -77.45298 | 31896 ft | 464 kts | 225° |
| 2026-05-05 19:39 | 38.99109 | -77.50523 | 31899 ft | 465 kts | 225° |
| 2026-05-05 19:39 | 38.94064 | -77.55743 | 31897 ft | 465 kts | 225° |
| 2026-05-05 19:40 | 38.89032 | -77.60939 | 31900 ft | 464 kts | 225° |
| 2026-05-05 19:40 | 38.83984 | -77.66142 | 31893 ft | 463 kts | 224° |
| 2026-05-05 19:41 | 38.78939 | -77.71334 | 31899 ft | 465 kts | 224° |
| 2026-05-05 19:41 | 38.73934 | -77.76474 | 31920 ft | 464 kts | 224° |
| 2026-05-05 19:42 | 38.68886 | -77.81650 | 31923 ft | 464 kts | 224° |
| 2026-05-05 19:42 | 38.64019 | -77.86997 | 31920 ft | 455 kts | 233° |
| 2026-05-05 19:43 | 38.60177 | -77.93308 | 31930 ft | 452 kts | 238° |
| 2026-05-05 19:43 | 38.56404 | -77.99698 | 31917 ft | 449 kts | 238° |
| 2026-05-05 19:44 | 38.52650 | -78.06066 | 31924 ft | 450 kts | 238° |
| 2026-05-05 19:44 | 38.48898 | -78.12425 | 31918 ft | 450 kts | 238° |
| 2026-05-05 19:45 | 38.45145 | -78.18776 | 31939 ft | 449 kts | 238° |
| 2026-05-05 19:45 | 38.41377 | -78.25145 | 31931 ft | 451 kts | 238° |
| 2026-05-05 19:46 | 38.37599 | -78.31512 | 31929 ft | 449 kts | 238° |
| 2026-05-05 19:46 | 38.33827 | -78.37863 | 31945 ft | 452 kts | 238° |
| 2026-05-05 19:47 | 38.30060 | -78.44190 | 31928 ft | 449 kts | 238° |
| 2026-05-05 19:47 | 38.26288 | -78.50516 | 31935 ft | 448 kts | 238° |
| 2026-05-05 19:48 | 38.22529 | -78.56807 | 31935 ft | 450 kts | 238° |
| 2026-05-05 19:48 | 38.18749 | -78.63119 | 31935 ft | 448 kts | 238° |
| 2026-05-05 19:49 | 38.14953 | -78.69447 | 31956 ft | 449 kts | 238° |
| 2026-05-05 19:49 | 38.11158 | -78.75761 | 31954 ft | 448 kts | 238° |
| 2026-05-05 19:50 | 38.07367 | -78.82056 | 31949 ft | 450 kts | 238° |
| 2026-05-05 19:50 | 38.03548 | -78.88387 | 31954 ft | 450 kts | 238° |
| 2026-05-05 19:51 | 37.99756 | -78.94660 | 31967 ft | 449 kts | 238° |
| 2026-05-05 19:51 | 37.95961 | -79.00926 | 31966 ft | 448 kts | 238° |
| 2026-05-05 19:52 | 37.92145 | -79.07214 | 31979 ft | 449 kts | 238° |
| 2026-05-05 19:52 | 37.88206 | -79.13178 | 31974 ft | 449 kts | 234° |
| 2026-05-05 19:53 | 37.84001 | -79.19076 | 31972 ft | 451 kts | 234° |
| 2026-05-05 19:53 | 37.79804 | -79.24927 | 31972 ft | 450 kts | 234° |
| 2026-05-05 19:54 | 37.75605 | -79.30763 | 31975 ft | 451 kts | 234° |
| 2026-05-05 19:54 | 37.71358 | -79.36652 | 31970 ft | 452 kts | 234° |
| 2026-05-05 19:55 | 37.67152 | -79.42472 | 31970 ft | 449 kts | 234° |
| 2026-05-05 19:55 | 37.62927 | -79.48308 | 31983 ft | 450 kts | 234° |
| 2026-05-05 19:56 | 37.58713 | -79.54118 | 31991 ft | 451 kts | 234° |
| 2026-05-05 19:56 | 37.54462 | -79.59966 | 31986 ft | 450 kts | 234° |
| 2026-05-05 19:57 | 37.50241 | -79.65765 | 31991 ft | 449 kts | 234° |
| 2026-05-05 19:57 | 37.46000 | -79.71580 | 31980 ft | 452 kts | 234° |
| 2026-05-05 19:58 | 37.41762 | -79.77380 | 31981 ft | 450 kts | 234° |
| 2026-05-05 19:58 | 37.37521 | -79.83173 | 31983 ft | 448 kts | 234° |
| 2026-05-05 19:59 | 37.33283 | -79.88953 | 31990 ft | 450 kts | 234° |
| 2026-05-05 19:59 | 37.29013 | -79.94768 | 31998 ft | 452 kts | 234° |
| 2026-05-05 20:00 | 37.24757 | -80.00548 | 31990 ft | 451 kts | 234° |
| 2026-05-05 20:00 | 37.20496 | -80.06329 | 31989 ft | 452 kts | 234° |
| 2026-05-05 20:01 | 37.16231 | -80.12103 | 32006 ft | 451 kts | 234° |
| 2026-05-05 20:01 | 37.11983 | -80.17844 | 32013 ft | 450 kts | 234° |
| 2026-05-05 20:02 | 37.07726 | -80.23587 | 32009 ft | 451 kts | 234° |
| 2026-05-05 20:02 | 37.03478 | -80.29308 | 32015 ft | 449 kts | 234° |
| 2026-05-05 20:03 | 36.99155 | -80.34963 | 32023 ft | 451 kts | 233° |
| 2026-05-05 20:03 | 36.94745 | -80.40614 | 32021 ft | 452 kts | 233° |
| 2026-05-05 20:04 | 36.90388 | -80.46181 | 32023 ft | 450 kts | 233° |
| 2026-05-05 20:04 | 36.86032 | -80.51742 | 32019 ft | 450 kts | 234° |
| 2026-05-05 20:05 | 36.81623 | -80.57362 | 32020 ft | 451 kts | 234° |
| 2026-05-05 20:05 | 36.77270 | -80.62901 | 32019 ft | 448 kts | 234° |
| 2026-05-05 20:06 | 36.72860 | -80.68501 | 32036 ft | 450 kts | 233° |
| 2026-05-05 20:06 | 36.68484 | -80.74049 | 32029 ft | 451 kts | 233° |
| 2026-05-05 20:07 | 36.64117 | -80.79575 | 32023 ft | 449 kts | 233° |
| 2026-05-05 20:07 | 36.59718 | -80.85131 | 32029 ft | 449 kts | 234° |
| 2026-05-05 20:08 | 36.55302 | -80.90704 | 32029 ft | 452 kts | 234° |
| 2026-05-05 20:08 | 36.50910 | -80.96231 | 32032 ft | 449 kts | 234° |
| 2026-05-05 20:09 | 36.46497 | -81.01778 | 32033 ft | 450 kts | 234° |
| 2026-05-05 20:09 | 36.42090 | -81.07309 | 32041 ft | 451 kts | 234° |
| 2026-05-05 20:10 | 36.37676 | -81.12837 | 32033 ft | 449 kts | 234° |
| 2026-05-05 20:10 | 36.33279 | -81.18336 | 32028 ft | 450 kts | 233° |
| 2026-05-05 20:11 | 36.28886 | -81.23827 | 32034 ft | 451 kts | 234° |
| 2026-05-05 20:11 | 36.24418 | -81.29404 | 32030 ft | 451 kts | 234° |
| 2026-05-05 20:12 | 36.19986 | -81.34930 | 32025 ft | 452 kts | 234° |
| 2026-05-05 20:12 | 36.15586 | -81.40406 | 32024 ft | 451 kts | 234° |
| 2026-05-05 20:13 | 36.11145 | -81.45921 | 32034 ft | 454 kts | 234° |
| 2026-05-05 20:13 | 36.06705 | -81.51427 | 32032 ft | 452 kts | 234° |
| 2026-05-05 20:14 | 36.02246 | -81.56946 | 32040 ft | 453 kts | 234° |
| 2026-05-05 20:14 | 35.97791 | -81.62451 | 32036 ft | 450 kts | 234° |
| 2026-05-05 20:15 | 35.93355 | -81.67926 | 32057 ft | 454 kts | 233° |
| 2026-05-05 20:15 | 35.88875 | -81.73444 | 32037 ft | 454 kts | 233° |
| 2026-05-05 20:16 | 35.84398 | -81.78950 | 32033 ft | 452 kts | 233° |
| 2026-05-05 20:16 | 35.79940 | -81.84421 | 32030 ft | 452 kts | 233° |
| 2026-05-05 20:17 | 35.75424 | -81.89856 | 32011 ft | 455 kts | 233° |
| 2026-05-05 20:17 | 35.70906 | -81.95264 | 32001 ft | 453 kts | 233° |
| 2026-05-05 20:18 | 35.66379 | -82.00674 | 31999 ft | 452 kts | 233° |
| 2026-05-05 20:18 | 35.61847 | -82.06087 | 32014 ft | 455 kts | 233° |
| 2026-05-05 20:19 | 35.57316 | -82.11481 | 32019 ft | 453 kts | 233° |
| 2026-05-05 20:19 | 35.52815 | -82.16835 | 32020 ft | 451 kts | 233° |
| 2026-05-05 20:20 | 35.48305 | -82.22191 | 32020 ft | 450 kts | 233° |
| 2026-05-05 20:20 | 35.43821 | -82.27508 | 32033 ft | 450 kts | 233° |
| 2026-05-05 20:21 | 35.39359 | -82.32983 | 32029 ft | 451 kts | 234° |
| 2026-05-05 20:21 | 35.34970 | -82.38437 | 32037 ft | 450 kts | 234° |
| 2026-05-05 20:22 | 35.30582 | -82.43880 | 32030 ft | 447 kts | 234° |
| 2026-05-05 20:22 | 35.26186 | -82.49330 | 32028 ft | 451 kts | 234° |
| 2026-05-05 20:23 | 35.21790 | -82.54765 | 32034 ft | 450 kts | 234° |
| 2026-05-05 20:23 | 35.17379 | -82.60212 | 32025 ft | 451 kts | 234° |
| 2026-05-05 20:24 | 35.12913 | -82.65580 | 32009 ft | 447 kts | 233° |
| 2026-05-05 20:24 | 35.08434 | -82.70906 | 32021 ft | 452 kts | 233° |
| 2026-05-05 20:25 | 35.03924 | -82.76251 | 32011 ft | 450 kts | 233° |
| 2026-05-05 20:25 | 34.99460 | -82.81536 | 32013 ft | 449 kts | 233° |
| 2026-05-05 20:26 | 34.94932 | -82.86893 | 32014 ft | 452 kts | 233° |
| 2026-05-05 20:26 | 34.90382 | -82.92192 | 32008 ft | 449 kts | 233° |
| 2026-05-05 20:27 | 34.85857 | -82.97434 | 32011 ft | 449 kts | 233° |
| 2026-05-05 20:27 | 34.81276 | -83.02741 | 31245 ft | 461 kts | 232° |
| 2026-05-05 20:27 | 34.78981 | -83.05386 | 30415 ft | 454 kts | 232° |
| 2026-05-05 20:28 | 34.76714 | -83.07999 | 29633 ft | 448 kts | 231° |
| 2026-05-05 20:28 | 34.74473 | -83.10586 | 28866 ft | 451 kts | 231° |
| 2026-05-05 20:28 | 34.72178 | -83.13232 | 28099 ft | 452 kts | 230° |
| 2026-05-05 20:28 | 34.69901 | -83.15852 | 27327 ft | 450 kts | 230° |
| 2026-05-05 20:29 | 34.67640 | -83.18451 | 26551 ft | 444 kts | 230° |
| 2026-05-05 20:29 | 34.65377 | -83.21051 | 25763 ft | 438 kts | 230° |
| 2026-05-05 20:29 | 34.63205 | -83.23544 | 24668 ft | 432 kts | 229° |
| 2026-05-05 20:29 | 34.61052 | -83.26021 | 23245 ft | 433 kts | 229° |
| 2026-05-05 20:30 | 34.58887 | -83.28500 | 22445 ft | 417 kts | 229° |
| 2026-05-05 20:30 | 34.56823 | -83.30865 | 22097 ft | 411 kts | 229° |
| 2026-05-05 20:30 | 34.54705 | -83.33301 | 21348 ft | 416 kts | 229° |
| 2026-05-05 20:30 | 34.52607 | -83.35716 | 20607 ft | 416 kts | 229° |
| 2026-05-05 20:31 | 34.50505 | -83.38135 | 19901 ft | 413 kts | 228° |
| 2026-05-05 20:31 | 34.48471 | -83.40462 | 19597 ft | 392 kts | 228° |
| 2026-05-05 20:31 | 34.46505 | -83.42725 | 18542 ft | 393 kts | 228° |
| 2026-05-05 20:31 | 34.44558 | -83.44963 | 17457 ft | 393 kts | 228° |
| 2026-05-05 20:32 | 34.42588 | -83.47224 | 16643 ft | 386 kts | 228° |
| 2026-05-05 20:32 | 34.40638 | -83.49460 | 15704 ft | 382 kts | 227° |
| 2026-05-05 20:32 | 34.38731 | -83.51645 | 15030 ft | 377 kts | 227° |
| 2026-05-05 20:32 | 34.36876 | -83.53765 | 14766 ft | 367 kts | 227° |
| 2026-05-05 20:33 | 34.35033 | -83.55877 | 14184 ft | 365 kts | 227° |
| 2026-05-05 20:33 | 34.33164 | -83.58013 | 13710 ft | 361 kts | 226° |
| 2026-05-05 20:33 | 34.31350 | -83.60087 | 13167 ft | 359 kts | 226° |
| 2026-05-05 20:33 | 34.29541 | -83.62153 | 12634 ft | 357 kts | 226° |
| 2026-05-05 20:34 | 34.27704 | -83.64156 | 12334 ft | 348 kts | 224° |
| 2026-05-05 20:34 | 34.25910 | -83.66063 | 12098 ft | 338 kts | 224° |
| 2026-05-05 20:34 | 34.24177 | -83.67905 | 11875 ft | 329 kts | 224° |
| 2026-05-05 20:34 | 34.22474 | -83.69720 | 11688 ft | 319 kts | 224° |
| 2026-05-05 20:35 | 34.20842 | -83.71455 | 11505 ft | 310 kts | 224° |
| 2026-05-05 20:35 | 34.19249 | -83.73149 | 11321 ft | 301 kts | 224° |
| 2026-05-05 20:35 | 34.17668 | -83.74830 | 11140 ft | 293 kts | 224° |
| 2026-05-05 20:35 | 34.16145 | -83.76449 | 10954 ft | 286 kts | 224° |
| 2026-05-05 20:36 | 34.14685 | -83.77998 | 10775 ft | 279 kts | 224° |
| 2026-05-05 20:36 | 34.13242 | -83.79531 | 10624 ft | 271 kts | 224° |
| 2026-05-05 20:36 | 34.11832 | -83.81027 | 10491 ft | 267 kts | 224° |
| 2026-05-05 20:36 | 34.10442 | -83.82503 | 10362 ft | 266 kts | 224° |
| 2026-05-05 20:37 | 34.09056 | -83.83978 | 10240 ft | 267 kts | 224° |
| 2026-05-05 20:37 | 34.07678 | -83.85460 | 10117 ft | 265 kts | 224° |
| 2026-05-05 20:37 | 34.06295 | -83.86945 | 9991 ft | 265 kts | 224° |
| 2026-05-05 20:37 | 34.04908 | -83.88434 | 9870 ft | 265 kts | 224° |
| 2026-05-05 20:38 | 34.03529 | -83.89913 | 9744 ft | 264 kts | 224° |
| 2026-05-05 20:38 | 34.02153 | -83.91389 | 9622 ft | 264 kts | 224° |
| 2026-05-05 20:38 | 34.00770 | -83.92871 | 9496 ft | 262 kts | 224° |
| 2026-05-05 20:38 | 33.99421 | -83.94318 | 9370 ft | 262 kts | 224° |
| 2026-05-05 20:39 | 33.98016 | -83.95773 | 9254 ft | 264 kts | 216° |
| 2026-05-05 20:39 | 33.96310 | -83.96582 | 9178 ft | 270 kts | 189° |
| 2026-05-05 20:39 | 33.94418 | -83.96609 | 9127 ft | 274 kts | 182° |
| 2026-05-05 20:39 | 33.92477 | -83.96568 | 9033 ft | 277 kts | 182° |
| 2026-05-05 20:40 | 33.90563 | -83.96513 | 8893 ft | 276 kts | 182° |
| 2026-05-05 20:40 | 33.88645 | -83.96446 | 8762 ft | 273 kts | 181° |
| 2026-05-05 20:40 | 33.86731 | -83.96375 | 8640 ft | 272 kts | 181° |
| 2026-05-05 20:40 | 33.84833 | -83.96300 | 8520 ft | 272 kts | 181° |
| 2026-05-05 20:41 | 33.82933 | -83.96223 | 8399 ft | 272 kts | 181° |
| 2026-05-05 20:41 | 33.81052 | -83.96146 | 8276 ft | 270 kts | 181° |
| 2026-05-05 20:41 | 33.79161 | -83.96069 | 8156 ft | 270 kts | 181° |
| 2026-05-05 20:41 | 33.77281 | -83.95990 | 8033 ft | 268 kts | 181° |
| 2026-05-05 20:42 | 33.75433 | -83.96081 | 7919 ft | 264 kts | 197° |
| 2026-05-05 20:42 | 33.73685 | -83.96843 | 7744 ft | 264 kts | 204° |
| 2026-05-05 20:42 | 33.72010 | -83.97646 | 7524 ft | 260 kts | 203° |
| 2026-05-05 20:42 | 33.70341 | -83.98453 | 7305 ft | 257 kts | 203° |
| 2026-05-05 20:43 | 33.68680 | -83.99266 | 7101 ft | 252 kts | 203° |
| 2026-05-05 20:43 | 33.67085 | -84.00057 | 6937 ft | 246 kts | 206° |
| 2026-05-05 20:43 | 33.65755 | -84.01289 | 6748 ft | 240 kts | 234° |
| 2026-05-05 20:43 | 33.65170 | -84.03129 | 6597 ft | 238 kts | 262° |
| 2026-05-05 20:44 | 33.65077 | -84.05102 | 6475 ft | 230 kts | 265° |
| 2026-05-05 20:44 | 33.65014 | -84.06979 | 6310 ft | 223 kts | 265° |
| 2026-05-05 20:44 | 33.64965 | -84.08822 | 6049 ft | 221 kts | 265° |
| 2026-05-05 20:44 | 33.64916 | -84.10648 | 5771 ft | 220 kts | 265° |
| 2026-05-05 20:45 | 33.64920 | -84.14322 | 5204 ft | 219 kts | 267° |
| 2026-05-05 20:45 | 33.64926 | -84.16127 | 4973 ft | 213 kts | 266° |
| 2026-05-05 20:45 | 33.64932 | -84.17877 | 4675 ft | 207 kts | 266° |
| 2026-05-05 20:46 | 33.64936 | -84.19567 | 4395 ft | 201 kts | 266° |
| 2026-05-05 20:46 | 33.64939 | -84.21220 | 4119 ft | 195 kts | 266° |
| 2026-05-05 20:46 | 33.64943 | -84.22847 | 3853 ft | 192 kts | 265° |
| 2026-05-05 20:46 | 33.64945 | -84.24441 | 3604 ft | 191 kts | 266° |
| 2026-05-05 20:47 | 33.64946 | -84.26010 | 3358 ft | 187 kts | 266° |
| 2026-05-05 20:47 | 33.64948 | -84.27567 | 3099 ft | 182 kts | 266° |
| 2026-05-05 20:47 | 33.64951 | -84.29072 | 2862 ft | 174 kts | 265° |
| 2026-05-05 20:47 | 33.64954 | -84.30480 | 2632 ft | 169 kts | 265° |
| 2026-05-05 20:48 | 33.64952 | -84.31881 | 2523 ft | 163 kts | 265° |
| 2026-05-05 20:48 | 33.64959 | -84.33221 | 2415 ft | 162 kts | 266° |
| 2026-05-05 20:48 | 33.64978 | -84.34562 | 2159 ft | 160 kts | 267° |
| 2026-05-05 20:48 | 33.64990 | -84.35853 | 1880 ft | 151 kts | 264° |
| 2026-05-05 20:49 | 33.64976 | -84.37109 | 1624 ft | 147 kts | 265° |
| 2026-05-05 20:49 | 33.64970 | -84.38332 | 1396 ft | 148 kts | 263° |
| 2026-05-05 20:49 | 33.64951 | -84.39591 | 1226 ft | 152 kts | 266° |
| 2026-05-05 20:49 | 33.64957 | -84.40842 | 1045 ft | 152 kts | 265° |
| 2026-05-05 20:50 | 33.64957 | -84.42082 | 985 ft | 140 kts | 266° |
| 2026-05-05 20:50 | 33.64954 | -84.42756 | 998 ft | 36 kts | 270° |
| 2026-05-05 20:50 | 33.64950 | -84.43034 | 1003 ft | 20 kts | 266° |
| 2026-05-05 20:50 | 33.64941 | -84.43115 | 1005 ft | 4 kts | 258° |
| 2026-05-05 20:51 | 33.64932 | -84.43166 | 1005 ft | 7 kts | 258° |
| 2026-05-05 20:51 | 33.64912 | -84.43227 | 1007 ft | 8 kts | 239° |
| 2026-05-05 20:51 | 33.64877 | -84.43300 | 1008 ft | 11 kts | 243° |
| 2026-05-05 20:51 | 33.64846 | -84.43404 | 1010 ft | 14 kts | 263° |
| 2026-05-05 20:52 | 33.64824 | -84.43520 | 1012 ft | 14 kts | 227° |
| 2026-05-05 20:52 | 33.64731 | -84.43592 | 1014 ft | 17 kts | 210° |
| 2026-05-05 20:52 | 33.64614 | -84.43671 | 1016 ft | 20 kts | 210° |
| 2026-05-05 20:52 | 33.64481 | -84.43760 | 1017 ft | 22 kts | 207° |
| 2026-05-05 20:53 | 33.64339 | -84.43784 | 1018 ft | 21 kts | 179° |
| 2026-05-05 20:53 | 33.64232 | -84.43785 | 1018 ft | 3 kts | 194° |
| 2026-05-05 20:53 | 33.64212 | -84.43814 | 1018 ft | 3 kts | 264° |
| 2026-05-05 20:53 | 33.64214 | -84.43851 | 1019 ft | 3 kts | 271° |
| 2026-05-05 20:54 | 33.64214 | -84.43857 | 1019 ft | 0 kts | 270° |